BAW54 FAOR-EGLL
Flight info
| Callsign | BAW54 |
|---|---|
| Flight time | 10h 25m |
| Altitude | 23000 |
| Route | NESAN Q40 EVIPI/N0498F330 DCT ETMIT UM214 OKLAP/N0499F340 UM214 RAPOL UA607 UPARA/N0494F360 UA607 DIR UB730 RAKOM/N0490F380 UB730 DJA UA605 CSO UM998 KAMER DCT NAFOQ DCT SURJU DCT PADKO DCT MRM DCT MTL DCT ETREK DCT MADOT DCT MOPEM DCT CACHI DCT AVLON DCT OKRIX DCT BRY/N0460F360 DCT CLM DCT KOPOR DCT ABNUR DCT DIMAL DCT ALESO |
| Aircraft | A388/J-SADE2E3FGHIJ3J4J5M1RWXY/LB1D1 |
Departure
| Time | 2026-05-07 08:48 |
|---|---|
| Airport | O.R. Tambo International Airport (FAOR) |
Arrival
| Time | 2026-05-07 19:14 |
|---|---|
| Airport | London Heathrow Airport (EGLL) |
| Time | Latitude | Longitude | Altitude | Speed | Heading |
|---|---|---|---|---|---|
| 2026-05-07 08:26 | -26.12917 | 28.23576 | 5556 ft | 0 kts | 186° |
| 2026-05-07 08:40 | -26.12897 | 28.23578 | 5556 ft | 4 kts | 186° |
| 2026-05-07 08:40 | -26.12876 | 28.23581 | 5554 ft | 4 kts | 181° |
| 2026-05-07 08:40 | -26.12849 | 28.23578 | 5552 ft | 4 kts | 163° |
| 2026-05-07 08:40 | -26.12826 | 28.23566 | 5553 ft | 4 kts | 134° |
| 2026-05-07 08:41 | -26.12814 | 28.23543 | 5553 ft | 3 kts | 96° |
| 2026-05-07 08:41 | -26.12811 | 28.23514 | 5553 ft | 4 kts | 96° |
| 2026-05-07 08:41 | -26.12810 | 28.23502 | 5552 ft | 1 kts | 96° |
| 2026-05-07 08:43 | -26.12816 | 28.23561 | 5554 ft | 11 kts | 96° |
| 2026-05-07 08:43 | -26.12825 | 28.23652 | 5551 ft | 14 kts | 96° |
| 2026-05-07 08:44 | -26.12829 | 28.23771 | 5550 ft | 15 kts | 63° |
| 2026-05-07 08:44 | -26.12743 | 28.23823 | 5551 ft | 16 kts | 18° |
| 2026-05-07 08:44 | -26.12617 | 28.23859 | 5547 ft | 20 kts | 15° |
| 2026-05-07 08:44 | -26.12468 | 28.23907 | 5546 ft | 24 kts | 15° |
| 2026-05-07 08:45 | -26.12295 | 28.23960 | 5543 ft | 27 kts | 15° |
| 2026-05-07 08:45 | -26.12091 | 28.24020 | 5537 ft | 31 kts | 15° |
| 2026-05-07 08:45 | -26.11880 | 28.24086 | 5532 ft | 33 kts | 16° |
| 2026-05-07 08:45 | -26.11654 | 28.24159 | 5530 ft | 33 kts | 16° |
| 2026-05-07 08:46 | -26.11432 | 28.24227 | 5528 ft | 32 kts | 15° |
| 2026-05-07 08:46 | -26.11218 | 28.24292 | 5524 ft | 32 kts | 15° |
| 2026-05-07 08:46 | -26.10993 | 28.24362 | 5519 ft | 34 kts | 15° |
| 2026-05-07 08:46 | -26.10799 | 28.24425 | 5514 ft | 19 kts | 48° |
| 2026-05-07 08:47 | -26.10798 | 28.24550 | 5513 ft | 18 kts | 111° |
| 2026-05-07 08:47 | -26.10868 | 28.24595 | 5513 ft | 14 kts | 183° |
| 2026-05-07 08:47 | -26.11092 | 28.24533 | 5522 ft | 64 kts | 196° |
| 2026-05-07 08:47 | -26.11724 | 28.24332 | 5533 ft | 123 kts | 195° |
| 2026-05-07 08:48 | -26.12695 | 28.24035 | 5546 ft | 162 kts | 195° |
| 2026-05-07 08:48 | -26.13859 | 28.23676 | 5666 ft | 179 kts | 198° |
| 2026-05-07 08:48 | -26.15050 | 28.23306 | 6114 ft | 180 kts | 198° |
| 2026-05-07 08:48 | -26.16255 | 28.22932 | 6617 ft | 179 kts | 198° |
| 2026-05-07 08:49 | -26.17462 | 28.22561 | 7062 ft | 179 kts | 199° |
| 2026-05-07 08:49 | -26.18664 | 28.22190 | 7412 ft | 180 kts | 199° |
| 2026-05-07 08:49 | -26.19892 | 28.21803 | 7544 ft | 192 kts | 199° |
| 2026-05-07 08:49 | -26.21220 | 28.21383 | 7605 ft | 203 kts | 199° |
| 2026-05-07 08:50 | -26.22578 | 28.20859 | 7668 ft | 210 kts | 214° |
| 2026-05-07 08:50 | -26.23557 | 28.19664 | 7733 ft | 214 kts | 245° |
| 2026-05-07 08:50 | -26.23779 | 28.18003 | 7772 ft | 227 kts | 276° |
| 2026-05-07 08:50 | -26.23111 | 28.16308 | 7894 ft | 255 kts | 305° |
| 2026-05-07 08:51 | -26.21652 | 28.15045 | 8092 ft | 283 kts | 332° |
| 2026-05-07 08:51 | -26.19698 | 28.14604 | 8556 ft | 297 kts | 359° |
| 2026-05-07 08:51 | -26.17634 | 28.15019 | 9121 ft | 303 kts | 11° |
| 2026-05-07 08:51 | -26.15571 | 28.15551 | 9667 ft | 304 kts | 6° |
| 2026-05-07 08:52 | -26.13457 | 28.15843 | 10234 ft | 303 kts | 359° |
| 2026-05-07 08:52 | -26.11330 | 28.15908 | 10548 ft | 311 kts | 355° |
| 2026-05-07 08:52 | -26.09147 | 28.15829 | 10641 ft | 325 kts | 352° |
| 2026-05-07 08:52 | -26.06830 | 28.15675 | 10791 ft | 341 kts | 352° |
| 2026-05-07 08:53 | -26.04427 | 28.15501 | 11220 ft | 346 kts | 352° |
| 2026-05-07 08:53 | -26.02048 | 28.15333 | 11827 ft | 345 kts | 352° |
| 2026-05-07 08:53 | -25.99649 | 28.15169 | 12445 ft | 345 kts | 351° |
| 2026-05-07 08:53 | -25.97245 | 28.15007 | 13056 ft | 345 kts | 351° |
| 2026-05-07 08:54 | -25.94845 | 28.14846 | 13682 ft | 345 kts | 351° |
| 2026-05-07 08:54 | -25.92440 | 28.14685 | 14233 ft | 347 kts | 351° |
| 2026-05-07 08:54 | -25.90020 | 28.14521 | 14678 ft | 350 kts | 351° |
| 2026-05-07 08:54 | -25.87573 | 28.14356 | 15143 ft | 352 kts | 351° |
| 2026-05-07 08:55 | -25.85145 | 28.14192 | 15592 ft | 355 kts | 350° |
| 2026-05-07 08:55 | -25.82666 | 28.14025 | 16046 ft | 358 kts | 350° |
| 2026-05-07 08:55 | -25.80176 | 28.13858 | 16470 ft | 360 kts | 350° |
| 2026-05-07 08:55 | -25.77653 | 28.13689 | 16872 ft | 363 kts | 350° |
| 2026-05-07 08:56 | -25.75120 | 28.13518 | 17312 ft | 365 kts | 350° |
| 2026-05-07 08:56 | -25.72559 | 28.13346 | 17605 ft | 371 kts | 350° |
| 2026-05-07 08:56 | -25.69975 | 28.13169 | 17711 ft | 382 kts | 350° |
| 2026-05-07 08:56 | -25.67456 | 28.12997 | 17816 ft | 391 kts | 350° |
| 2026-05-07 08:57 | -25.64716 | 28.12811 | 17898 ft | 401 kts | 350° |
| 2026-05-07 08:57 | -25.61874 | 28.12622 | 18083 ft | 408 kts | 350° |
| 2026-05-07 08:57 | -25.59025 | 28.12435 | 18442 ft | 410 kts | 350° |
| 2026-05-07 08:57 | -25.56165 | 28.12248 | 18767 ft | 411 kts | 350° |
| 2026-05-07 08:58 | -25.53347 | 28.12062 | 19104 ft | 412 kts | 349° |
| 2026-05-07 08:58 | -25.50519 | 28.11684 | 19421 ft | 407 kts | 343° |
| 2026-05-07 08:58 | -25.47782 | 28.10950 | 19757 ft | 403 kts | 336° |
| 2026-05-07 08:58 | -25.45149 | 28.09896 | 20064 ft | 401 kts | 332° |
| 2026-05-07 08:59 | -25.42541 | 28.08750 | 20364 ft | 402 kts | 332° |
| 2026-05-07 08:59 | -25.39924 | 28.07618 | 20673 ft | 403 kts | 332° |
| 2026-05-07 08:59 | -25.37330 | 28.06503 | 21016 ft | 404 kts | 332° |
| 2026-05-07 08:59 | -25.34697 | 28.05374 | 21316 ft | 405 kts | 332° |
| 2026-05-07 09:00 | -25.32098 | 28.04260 | 21637 ft | 406 kts | 332° |
| 2026-05-07 09:00 | -25.29421 | 28.03112 | 21947 ft | 408 kts | 332° |
| 2026-05-07 09:00 | -25.26800 | 28.01988 | 22265 ft | 409 kts | 332° |
| 2026-05-07 09:00 | -25.24132 | 28.00845 | 22588 ft | 410 kts | 332° |
| 2026-05-07 09:01 | -25.21457 | 27.99699 | 22928 ft | 412 kts | 332° |
| 2026-05-07 09:01 | -25.18776 | 27.98550 | 23262 ft | 413 kts | 332° |
| 2026-05-07 09:01 | -25.16119 | 27.97413 | 23582 ft | 415 kts | 332° |
| 2026-05-07 09:01 | -25.13416 | 27.96256 | 23897 ft | 417 kts | 332° |
| 2026-05-07 09:02 | -25.10700 | 27.95095 | 24214 ft | 418 kts | 332° |
| 2026-05-07 09:02 | -25.07979 | 27.93932 | 24507 ft | 420 kts | 332° |
| 2026-05-07 09:02 | -25.05240 | 27.92762 | 24833 ft | 421 kts | 332° |
| 2026-05-07 09:02 | -25.02494 | 27.91589 | 25151 ft | 423 kts | 332° |
| 2026-05-07 09:03 | -24.99770 | 27.90426 | 25459 ft | 425 kts | 332° |
| 2026-05-07 09:03 | -24.97005 | 27.89247 | 25815 ft | 426 kts | 331° |
| 2026-05-07 09:03 | -24.94227 | 27.88062 | 26144 ft | 429 kts | 331° |
| 2026-05-07 09:03 | -24.91435 | 27.86872 | 26501 ft | 431 kts | 331° |
| 2026-05-07 09:04 | -24.88606 | 27.85715 | 26854 ft | 436 kts | 334° |
| 2026-05-07 09:04 | -24.85689 | 27.84833 | 27193 ft | 445 kts | 339° |
| 2026-05-07 09:04 | -24.82600 | 27.84254 | 27528 ft | 453 kts | 345° |
| 2026-05-07 09:04 | -24.79443 | 27.83856 | 27885 ft | 456 kts | 345° |
| 2026-05-07 09:05 | -24.76284 | 27.83442 | 28237 ft | 458 kts | 345° |
| 2026-05-07 09:05 | -24.73106 | 27.83017 | 28593 ft | 461 kts | 345° |
| 2026-05-07 09:05 | -24.69907 | 27.82585 | 28951 ft | 463 kts | 345° |
| 2026-05-07 09:05 | -24.66733 | 27.82158 | 29296 ft | 466 kts | 345° |
| 2026-05-07 09:06 | -24.63492 | 27.81721 | 29637 ft | 468 kts | 345° |
| 2026-05-07 09:06 | -24.60244 | 27.81285 | 29984 ft | 471 kts | 345° |
| 2026-05-07 09:06 | -24.57010 | 27.80850 | 30290 ft | 474 kts | 345° |
| 2026-05-07 09:06 | -24.53726 | 27.80410 | 30597 ft | 476 kts | 345° |
| 2026-05-07 09:07 | -24.50421 | 27.79968 | 30910 ft | 478 kts | 345° |
| 2026-05-07 09:07 | -24.47110 | 27.79526 | 31216 ft | 479 kts | 345° |
| 2026-05-07 09:07 | -24.43789 | 27.79082 | 31553 ft | 481 kts | 345° |
| 2026-05-07 09:07 | -24.40482 | 27.78639 | 31810 ft | 484 kts | 345° |
| 2026-05-07 09:08 | -24.37130 | 27.78190 | 32108 ft | 486 kts | 345° |
| 2026-05-07 09:08 | -24.33764 | 27.77739 | 32405 ft | 488 kts | 345° |
| 2026-05-07 09:08 | -24.30373 | 27.77287 | 32709 ft | 490 kts | 345° |
| 2026-05-07 09:08 | -24.27009 | 27.76838 | 32986 ft | 492 kts | 345° |
| 2026-05-07 09:09 | -24.23594 | 27.76382 | 33199 ft | 495 kts | 345° |
| 2026-05-07 09:09 | -24.20165 | 27.75926 | 33151 ft | 494 kts | 345° |
| 2026-05-07 09:09 | -24.13331 | 27.75017 | 33139 ft | 494 kts | 346° |
| 2026-05-07 09:10 | -24.06510 | 27.74110 | 33153 ft | 495 kts | 346° |
| 2026-05-07 09:10 | -23.99658 | 27.73199 | 33154 ft | 496 kts | 346° |
| 2026-05-07 09:11 | -23.92793 | 27.72286 | 33154 ft | 496 kts | 346° |
| 2026-05-07 09:11 | -23.85955 | 27.71379 | 33154 ft | 497 kts | 346° |
| 2026-05-07 09:12 | -23.79059 | 27.70465 | 33151 ft | 497 kts | 346° |
| 2026-05-07 09:12 | -23.72201 | 27.69557 | 33152 ft | 498 kts | 346° |
| 2026-05-07 09:13 | -23.65342 | 27.68650 | 33152 ft | 499 kts | 346° |
| 2026-05-07 09:13 | -23.58432 | 27.67737 | 33153 ft | 499 kts | 346° |
| 2026-05-07 09:14 | -23.51522 | 27.66825 | 33152 ft | 500 kts | 346° |
| 2026-05-07 09:14 | -23.44649 | 27.65918 | 33153 ft | 501 kts | 346° |
| 2026-05-07 09:15 | -23.37716 | 27.65005 | 33150 ft | 501 kts | 346° |
| 2026-05-07 09:15 | -23.30779 | 27.64093 | 33153 ft | 501 kts | 346° |
| 2026-05-07 09:16 | -23.23854 | 27.63182 | 33148 ft | 501 kts | 347° |
| 2026-05-07 09:16 | -23.16941 | 27.62347 | 33151 ft | 503 kts | 348° |
| 2026-05-07 09:17 | -23.09946 | 27.61697 | 33152 ft | 504 kts | 349° |
| 2026-05-07 09:17 | -23.02987 | 27.61035 | 33146 ft | 503 kts | 348° |
| 2026-05-07 09:18 | -22.96008 | 27.60351 | 33149 ft | 504 kts | 348° |
| 2026-05-07 09:18 | -22.89003 | 27.59659 | 33147 ft | 504 kts | 348° |
| 2026-05-07 09:19 | -22.82052 | 27.58975 | 33151 ft | 504 kts | 348° |
| 2026-05-07 09:19 | -22.75056 | 27.58287 | 33144 ft | 504 kts | 349° |
| 2026-05-07 09:20 | -22.68101 | 27.57603 | 33139 ft | 504 kts | 349° |
| 2026-05-07 09:20 | -22.61095 | 27.56915 | 33143 ft | 504 kts | 349° |
| 2026-05-07 09:21 | -22.54092 | 27.56228 | 33145 ft | 505 kts | 349° |
| 2026-05-07 09:21 | -22.47108 | 27.55545 | 33142 ft | 504 kts | 349° |
| 2026-05-07 09:22 | -22.40110 | 27.54860 | 33142 ft | 505 kts | 349° |
| 2026-05-07 09:22 | -22.33102 | 27.54175 | 33143 ft | 505 kts | 349° |
| 2026-05-07 09:23 | -22.26137 | 27.53495 | 33155 ft | 505 kts | 349° |
| 2026-05-07 09:23 | -22.19114 | 27.52809 | 33158 ft | 505 kts | 349° |
| 2026-05-07 09:24 | -22.12156 | 27.52131 | 33146 ft | 505 kts | 349° |
| 2026-05-07 09:24 | -22.05140 | 27.51448 | 33149 ft | 505 kts | 349° |
| 2026-05-07 09:25 | -21.98128 | 27.50766 | 33148 ft | 505 kts | 349° |
| 2026-05-07 09:25 | -21.91118 | 27.50370 | 33141 ft | 508 kts | 352° |
| 2026-05-07 09:26 | -21.85219 | 27.50140 | 33146 ft | 508 kts | 352° |
| 2026-05-07 09:26 | -21.76999 | 27.49810 | 33147 ft | 508 kts | 352° |
| 2026-05-07 09:27 | -21.71133 | 27.49575 | 33149 ft | 508 kts | 352° |
| 2026-05-07 09:28 | -21.60510 | 27.49150 | 33147 ft | 508 kts | 352° |
| 2026-05-07 09:28 | -21.53438 | 27.48868 | 33151 ft | 508 kts | 352° |
| 2026-05-07 09:29 | -21.46418 | 27.48588 | 33151 ft | 508 kts | 352° |
| 2026-05-07 09:29 | -21.39346 | 27.48306 | 33152 ft | 507 kts | 352° |
| 2026-05-07 09:30 | -21.32270 | 27.48024 | 33156 ft | 508 kts | 352° |
| 2026-05-07 09:30 | -21.25244 | 27.47745 | 33160 ft | 508 kts | 352° |
| 2026-05-07 09:31 | -21.18169 | 27.47419 | 33162 ft | 505 kts | 349° |
| 2026-05-07 09:31 | -21.11308 | 27.46090 | 33158 ft | 498 kts | 341° |
| 2026-05-07 09:32 | -21.04570 | 27.44260 | 33164 ft | 499 kts | 341° |
| 2026-05-07 09:32 | -20.97846 | 27.42465 | 33159 ft | 499 kts | 341° |
| 2026-05-07 09:33 | -20.91089 | 27.40663 | 33166 ft | 499 kts | 341° |
| 2026-05-07 09:33 | -20.84387 | 27.38877 | 33173 ft | 499 kts | 341° |
| 2026-05-07 09:34 | -20.77645 | 27.37081 | 33168 ft | 499 kts | 341° |
| 2026-05-07 09:34 | -20.70886 | 27.35282 | 33156 ft | 500 kts | 341° |
| 2026-05-07 09:35 | -20.64157 | 27.33493 | 33159 ft | 500 kts | 341° |
| 2026-05-07 09:35 | -20.57394 | 27.31697 | 33166 ft | 500 kts | 341° |
| 2026-05-07 09:36 | -20.50621 | 27.29899 | 33164 ft | 501 kts | 341° |
| 2026-05-07 09:36 | -20.43842 | 27.28101 | 33161 ft | 501 kts | 341° |
| 2026-05-07 09:37 | -20.37096 | 27.26314 | 33157 ft | 501 kts | 341° |
| 2026-05-07 09:37 | -20.30326 | 27.24522 | 33156 ft | 501 kts | 341° |
| 2026-05-07 09:38 | -20.23575 | 27.22738 | 33153 ft | 501 kts | 341° |
| 2026-05-07 09:38 | -20.16773 | 27.20940 | 33150 ft | 502 kts | 341° |
| 2026-05-07 09:39 | -20.10017 | 27.19157 | 33145 ft | 502 kts | 341° |
| 2026-05-07 09:39 | -20.03223 | 27.17368 | 33147 ft | 503 kts | 341° |
| 2026-05-07 09:40 | -19.96409 | 27.15579 | 33144 ft | 504 kts | 341° |
| 2026-05-07 09:40 | -19.89638 | 27.13794 | 33149 ft | 504 kts | 341° |
| 2026-05-07 09:41 | -19.82813 | 27.11995 | 33144 ft | 504 kts | 341° |
| 2026-05-07 09:41 | -19.75985 | 27.10198 | 33150 ft | 505 kts | 341° |
| 2026-05-07 09:42 | -19.69203 | 27.08415 | 33148 ft | 505 kts | 341° |
| 2026-05-07 09:42 | -19.62364 | 27.06619 | 33147 ft | 505 kts | 341° |
| 2026-05-07 09:43 | -19.55567 | 27.04834 | 33162 ft | 505 kts | 341° |
| 2026-05-07 09:43 | -19.48717 | 27.03038 | 33159 ft | 505 kts | 341° |
| 2026-05-07 09:44 | -19.41912 | 27.01255 | 33163 ft | 505 kts | 341° |
| 2026-05-07 09:44 | -19.35062 | 26.99463 | 33346 ft | 508 kts | 341° |
| 2026-05-07 09:44 | -19.31634 | 26.98569 | 33828 ft | 506 kts | 340° |
| 2026-05-07 09:45 | -19.28373 | 26.97719 | 34259 ft | 505 kts | 340° |
| 2026-05-07 09:45 | -19.21620 | 26.95958 | 34172 ft | 502 kts | 340° |
| 2026-05-07 09:46 | -19.14826 | 26.94184 | 34166 ft | 503 kts | 340° |
| 2026-05-07 09:46 | -19.08020 | 26.92411 | 34164 ft | 503 kts | 340° |
| 2026-05-07 09:47 | -19.01289 | 26.90665 | 34165 ft | 485 kts | 340° |
| 2026-05-07 09:47 | -18.94865 | 26.88997 | 34167 ft | 477 kts | 339° |
| 2026-05-07 09:48 | -18.88395 | 26.87306 | 34167 ft | 479 kts | 339° |
| 2026-05-07 09:48 | -18.81900 | 26.85618 | 34160 ft | 479 kts | 339° |
| 2026-05-07 09:49 | -18.75440 | 26.83942 | 34161 ft | 480 kts | 339° |
| 2026-05-07 09:49 | -18.68956 | 26.82261 | 34150 ft | 479 kts | 339° |
| 2026-05-07 09:50 | -18.62514 | 26.80592 | 34146 ft | 479 kts | 339° |
| 2026-05-07 09:50 | -18.56032 | 26.78914 | 34144 ft | 479 kts | 339° |
| 2026-05-07 09:51 | -18.49544 | 26.77234 | 34137 ft | 479 kts | 339° |
| 2026-05-07 09:51 | -18.43096 | 26.75566 | 34140 ft | 479 kts | 339° |
| 2026-05-07 09:52 | -18.36603 | 26.73888 | 34140 ft | 479 kts | 339° |
| 2026-05-07 09:52 | -18.30132 | 26.72217 | 34134 ft | 480 kts | 339° |
| 2026-05-07 09:53 | -18.23639 | 26.70542 | 34129 ft | 480 kts | 339° |
| 2026-05-07 09:53 | -18.17138 | 26.68865 | 34128 ft | 480 kts | 339° |
| 2026-05-07 09:54 | -18.10920 | 26.67263 | 34134 ft | 480 kts | 339° |
| 2026-05-07 09:54 | -18.04425 | 26.65592 | 34135 ft | 480 kts | 339° |
| 2026-05-07 09:55 | -17.97956 | 26.63928 | 34141 ft | 480 kts | 339° |
| 2026-05-07 09:55 | -17.91446 | 26.62255 | 34140 ft | 480 kts | 339° |
| 2026-05-07 09:56 | -17.84942 | 26.60584 | 34133 ft | 480 kts | 339° |
| 2026-05-07 09:56 | -17.78451 | 26.58918 | 34132 ft | 480 kts | 339° |
| 2026-05-07 09:57 | -17.71977 | 26.57258 | 34136 ft | 480 kts | 339° |
| 2026-05-07 09:57 | -17.65500 | 26.55597 | 34139 ft | 480 kts | 339° |
| 2026-05-07 09:58 | -17.58990 | 26.53931 | 34133 ft | 481 kts | 339° |
| 2026-05-07 09:58 | -17.52528 | 26.52277 | 34126 ft | 481 kts | 339° |
| 2026-05-07 09:59 | -17.46001 | 26.50608 | 34124 ft | 481 kts | 339° |
| 2026-05-07 09:59 | -17.39476 | 26.48941 | 34121 ft | 482 kts | 339° |
| 2026-05-07 10:00 | -17.32994 | 26.47286 | 34124 ft | 482 kts | 339° |
| 2026-05-07 10:00 | -17.26446 | 26.45615 | 34116 ft | 483 kts | 339° |
| 2026-05-07 10:01 | -17.19953 | 26.43939 | 34111 ft | 482 kts | 338° |
| 2026-05-07 10:01 | -17.13448 | 26.42169 | 34104 ft | 483 kts | 338° |
| 2026-05-07 10:02 | -17.06930 | 26.40399 | 34102 ft | 484 kts | 338° |
| 2026-05-07 10:02 | -17.00420 | 26.38642 | 34094 ft | 484 kts | 338° |
| 2026-05-07 10:03 | -16.93884 | 26.36882 | 34089 ft | 485 kts | 338° |
| 2026-05-07 10:03 | -16.87332 | 26.35119 | 34083 ft | 486 kts | 338° |
| 2026-05-07 10:04 | -16.80807 | 26.33366 | 34095 ft | 486 kts | 338° |
| 2026-05-07 10:04 | -16.74237 | 26.31593 | 34080 ft | 487 kts | 338° |
| 2026-05-07 10:05 | -16.67701 | 26.29816 | 34075 ft | 487 kts | 338° |
| 2026-05-07 10:05 | -16.61106 | 26.28026 | 34070 ft | 488 kts | 338° |
| 2026-05-07 10:06 | -16.54561 | 26.26253 | 34055 ft | 488 kts | 339° |
| 2026-05-07 10:06 | -16.47957 | 26.24465 | 34056 ft | 488 kts | 339° |
| 2026-05-07 10:07 | -16.41387 | 26.22688 | 34038 ft | 488 kts | 339° |
| 2026-05-07 10:07 | -16.34836 | 26.20916 | 34047 ft | 488 kts | 339° |
| 2026-05-07 10:08 | -16.28243 | 26.19135 | 34044 ft | 488 kts | 339° |
| 2026-05-07 10:08 | -16.21690 | 26.17366 | 34033 ft | 489 kts | 339° |
| 2026-05-07 10:09 | -16.15098 | 26.15587 | 34026 ft | 489 kts | 339° |
| 2026-05-07 10:09 | -16.08493 | 26.13806 | 34030 ft | 489 kts | 339° |
| 2026-05-07 10:10 | -16.01932 | 26.12039 | 34025 ft | 489 kts | 339° |
| 2026-05-07 10:10 | -15.95330 | 26.10261 | 34026 ft | 489 kts | 339° |
| 2026-05-07 10:11 | -15.88717 | 26.08482 | 34024 ft | 490 kts | 340° |
| 2026-05-07 10:11 | -15.82134 | 26.06712 | 34028 ft | 490 kts | 340° |
| 2026-05-07 10:12 | -15.75511 | 26.04932 | 34030 ft | 490 kts | 340° |
| 2026-05-07 10:12 | -15.68940 | 26.03168 | 34029 ft | 491 kts | 340° |
| 2026-05-07 10:13 | -15.62325 | 26.01393 | 34028 ft | 491 kts | 340° |
| 2026-05-07 10:13 | -15.55694 | 25.99614 | 34023 ft | 491 kts | 340° |
| 2026-05-07 10:14 | -15.50182 | 25.98137 | 34021 ft | 491 kts | 340° |
| 2026-05-07 10:14 | -15.43581 | 25.96369 | 34020 ft | 491 kts | 340° |
| 2026-05-07 10:15 | -15.36955 | 25.94595 | 34010 ft | 491 kts | 340° |
| 2026-05-07 10:15 | -15.30326 | 25.92826 | 34007 ft | 492 kts | 340° |
| 2026-05-07 10:16 | -15.23718 | 25.91064 | 34007 ft | 492 kts | 340° |
| 2026-05-07 10:16 | -15.17079 | 25.89295 | 34006 ft | 492 kts | 340° |
| 2026-05-07 10:17 | -15.10418 | 25.87520 | 34000 ft | 492 kts | 341° |
| 2026-05-07 10:17 | -15.03802 | 25.85759 | 34001 ft | 493 kts | 341° |
| 2026-05-07 10:18 | -14.97137 | 25.83986 | 33996 ft | 493 kts | 341° |
| 2026-05-07 10:18 | -14.90508 | 25.82224 | 33995 ft | 493 kts | 341° |
| 2026-05-07 10:19 | -14.83879 | 25.80462 | 33994 ft | 494 kts | 341° |
| 2026-05-07 10:19 | -14.77217 | 25.78693 | 33993 ft | 494 kts | 341° |
| 2026-05-07 10:20 | -14.70548 | 25.76924 | 33988 ft | 494 kts | 341° |
| 2026-05-07 10:20 | -14.63921 | 25.75166 | 33985 ft | 494 kts | 341° |
| 2026-05-07 10:21 | -14.57242 | 25.73396 | 33984 ft | 494 kts | 341° |
| 2026-05-07 10:21 | -14.50601 | 25.71637 | 33981 ft | 495 kts | 341° |
| 2026-05-07 10:22 | -14.43931 | 25.69872 | 33982 ft | 495 kts | 341° |
| 2026-05-07 10:22 | -14.37235 | 25.68101 | 33977 ft | 496 kts | 341° |
| 2026-05-07 10:23 | -14.30576 | 25.66340 | 33980 ft | 496 kts | 341° |
| 2026-05-07 10:23 | -14.23877 | 25.64570 | 33979 ft | 496 kts | 341° |
| 2026-05-07 10:24 | -14.17198 | 25.62807 | 33981 ft | 496 kts | 341° |
| 2026-05-07 10:24 | -14.10489 | 25.61036 | 33974 ft | 497 kts | 341° |
| 2026-05-07 10:25 | -14.03826 | 25.59279 | 33980 ft | 497 kts | 341° |
| 2026-05-07 10:25 | -13.97114 | 25.57510 | 33977 ft | 497 kts | 341° |
| 2026-05-07 10:26 | -13.90400 | 25.55742 | 33980 ft | 497 kts | 342° |
| 2026-05-07 10:26 | -13.83716 | 25.53982 | 33979 ft | 498 kts | 342° |
| 2026-05-07 10:27 | -13.77003 | 25.52216 | 33991 ft | 498 kts | 342° |
| 2026-05-07 10:27 | -13.70265 | 25.50444 | 33989 ft | 498 kts | 342° |
| 2026-05-07 10:28 | -13.63581 | 25.48688 | 33998 ft | 498 kts | 342° |
| 2026-05-07 10:28 | -13.56846 | 25.46920 | 33969 ft | 498 kts | 342° |
| 2026-05-07 10:29 | -13.50117 | 25.45152 | 33966 ft | 499 kts | 342° |
| 2026-05-07 10:29 | -13.43375 | 25.43384 | 33967 ft | 499 kts | 342° |
| 2026-05-07 10:30 | -13.33303 | 25.40747 | 33965 ft | 500 kts | 342° |
| 2026-05-07 10:30 | -13.26530 | 25.38974 | 33978 ft | 501 kts | 342° |
| 2026-05-07 10:31 | -13.19809 | 25.37217 | 33976 ft | 502 kts | 342° |
| 2026-05-07 10:31 | -13.13025 | 25.35444 | 33977 ft | 502 kts | 342° |
| 2026-05-07 10:32 | -13.06279 | 25.33681 | 33977 ft | 502 kts | 342° |
| 2026-05-07 10:32 | -12.99497 | 25.31911 | 33975 ft | 502 kts | 343° |
| 2026-05-07 10:33 | -12.92744 | 25.30149 | 33973 ft | 502 kts | 343° |
| 2026-05-07 10:33 | -12.85961 | 25.28380 | 33969 ft | 502 kts | 343° |
| 2026-05-07 10:34 | -12.79174 | 25.26611 | 33966 ft | 502 kts | 343° |
| 2026-05-07 10:34 | -12.72431 | 25.24854 | 33967 ft | 502 kts | 343° |
| 2026-05-07 10:35 | -12.65637 | 25.23085 | 33965 ft | 502 kts | 343° |
| 2026-05-07 10:35 | -12.58887 | 25.21329 | 33961 ft | 502 kts | 343° |
| 2026-05-07 10:36 | -12.52099 | 25.19563 | 33960 ft | 502 kts | 343° |
| 2026-05-07 10:36 | -12.45321 | 25.17801 | 33958 ft | 502 kts | 343° |
| 2026-05-07 10:37 | -12.38534 | 25.16038 | 33963 ft | 503 kts | 343° |
| 2026-05-07 10:37 | -12.31781 | 25.14285 | 33959 ft | 503 kts | 343° |
| 2026-05-07 10:38 | -12.24977 | 25.12519 | 33961 ft | 503 kts | 343° |
| 2026-05-07 10:38 | -12.18188 | 25.10758 | 33961 ft | 503 kts | 343° |
| 2026-05-07 10:39 | -12.11415 | 25.09002 | 33962 ft | 503 kts | 343° |
| 2026-05-07 10:39 | -12.04615 | 25.07240 | 33965 ft | 503 kts | 343° |
| 2026-05-07 10:40 | -11.97857 | 25.05490 | 33970 ft | 504 kts | 343° |
| 2026-05-07 10:40 | -11.91058 | 25.03730 | 33974 ft | 504 kts | 343° |
| 2026-05-07 10:41 | -11.84269 | 25.01973 | 33976 ft | 504 kts | 343° |
| 2026-05-07 10:41 | -11.77464 | 25.00213 | 33973 ft | 504 kts | 343° |
| 2026-05-07 10:42 | -11.70636 | 24.98448 | 33976 ft | 505 kts | 343° |
| 2026-05-07 10:42 | -11.63846 | 24.96694 | 33980 ft | 505 kts | 343° |
| 2026-05-07 10:43 | -11.57017 | 24.94931 | 33976 ft | 505 kts | 343° |
| 2026-05-07 10:43 | -11.50242 | 24.93182 | 33977 ft | 505 kts | 343° |
| 2026-05-07 10:44 | -11.43422 | 24.91421 | 33975 ft | 505 kts | 343° |
| 2026-05-07 10:44 | -11.36632 | 24.89668 | 33975 ft | 505 kts | 344° |
| 2026-05-07 10:45 | -11.29814 | 24.87909 | 33969 ft | 504 kts | 344° |
| 2026-05-07 10:45 | -11.23015 | 24.86156 | 33969 ft | 504 kts | 344° |
| 2026-05-07 10:46 | -11.16188 | 24.84396 | 33970 ft | 504 kts | 344° |
| 2026-05-07 10:46 | -11.09420 | 24.82653 | 33969 ft | 505 kts | 344° |
| 2026-05-07 10:47 | -11.02596 | 24.80895 | 33966 ft | 505 kts | 344° |
| 2026-05-07 10:47 | -10.95779 | 24.79141 | 33968 ft | 505 kts | 344° |
| 2026-05-07 10:48 | -10.88987 | 24.77394 | 33966 ft | 506 kts | 344° |
| 2026-05-07 10:48 | -10.82156 | 24.75637 | 33963 ft | 506 kts | 344° |
| 2026-05-07 10:49 | -10.75303 | 24.73877 | 33963 ft | 506 kts | 344° |
| 2026-05-07 10:49 | -10.68502 | 24.72129 | 33959 ft | 507 kts | 344° |
| 2026-05-07 10:50 | -10.61648 | 24.70369 | 33957 ft | 507 kts | 344° |
| 2026-05-07 10:50 | -10.54823 | 24.68618 | 33949 ft | 508 kts | 344° |
| 2026-05-07 10:51 | -10.47966 | 24.66859 | 33950 ft | 508 kts | 344° |
| 2026-05-07 10:51 | -10.41124 | 24.65105 | 33945 ft | 508 kts | 344° |
| 2026-05-07 10:52 | -10.34249 | 24.63342 | 33934 ft | 508 kts | 344° |
| 2026-05-07 10:52 | -10.27373 | 24.61581 | 33927 ft | 508 kts | 344° |
| 2026-05-07 10:53 | -10.20510 | 24.59824 | 33921 ft | 508 kts | 344° |
| 2026-05-07 10:53 | -10.13691 | 24.58079 | 33920 ft | 508 kts | 344° |
| 2026-05-07 10:54 | -10.06821 | 24.56321 | 33910 ft | 508 kts | 344° |
| 2026-05-07 10:54 | -9.99956 | 24.54565 | 33904 ft | 508 kts | 344° |
| 2026-05-07 10:55 | -9.93144 | 24.52827 | 33897 ft | 508 kts | 344° |
| 2026-05-07 10:55 | -9.86258 | 24.51071 | 33893 ft | 508 kts | 344° |
| 2026-05-07 10:56 | -9.79431 | 24.49329 | 33888 ft | 508 kts | 344° |
| 2026-05-07 10:56 | -9.72572 | 24.47581 | 33893 ft | 508 kts | 344° |
| 2026-05-07 10:57 | -9.65701 | 24.45830 | 33885 ft | 508 kts | 344° |
| 2026-05-07 10:57 | -9.58876 | 24.44092 | 33891 ft | 508 kts | 344° |
| 2026-05-07 10:58 | -9.52018 | 24.42346 | 33896 ft | 508 kts | 344° |
| 2026-05-07 10:58 | -9.45143 | 24.40596 | 33897 ft | 508 kts | 344° |
| 2026-05-07 10:59 | -9.38305 | 24.38857 | 33892 ft | 508 kts | 345° |
| 2026-05-07 10:59 | -9.31440 | 24.37111 | 33895 ft | 508 kts | 345° |
| 2026-05-07 11:00 | -9.24611 | 24.35376 | 33896 ft | 508 kts | 345° |
| 2026-05-07 11:00 | -9.17969 | 24.33684 | 33898 ft | 508 kts | 344° |
| 2026-05-07 11:01 | -9.12290 | 24.32156 | 33895 ft | 508 kts | 343° |
| 2026-05-07 11:01 | -9.04323 | 24.29989 | 33898 ft | 508 kts | 344° |
| 2026-05-07 11:02 | -8.97503 | 24.28149 | 33901 ft | 508 kts | 344° |
| 2026-05-07 11:02 | -8.91803 | 24.26615 | 33895 ft | 508 kts | 344° |
| 2026-05-07 11:03 | -8.84948 | 24.24771 | 33892 ft | 509 kts | 344° |
| 2026-05-07 11:03 | -8.78154 | 24.22944 | 33893 ft | 509 kts | 344° |
| 2026-05-07 11:04 | -8.71299 | 24.21102 | 33895 ft | 509 kts | 344° |
| 2026-05-07 11:04 | -8.64428 | 24.19255 | 33887 ft | 509 kts | 344° |
| 2026-05-07 11:05 | -8.57603 | 24.17422 | 33887 ft | 509 kts | 344° |
| 2026-05-07 11:05 | -8.50727 | 24.15576 | 33891 ft | 510 kts | 344° |
| 2026-05-07 11:06 | -8.43900 | 24.13743 | 33890 ft | 510 kts | 344° |
| 2026-05-07 11:06 | -8.37006 | 24.11893 | 33895 ft | 511 kts | 344° |
| 2026-05-07 11:07 | -8.30169 | 24.10059 | 33895 ft | 511 kts | 344° |
| 2026-05-07 11:07 | -8.23279 | 24.08212 | 33896 ft | 511 kts | 344° |
| 2026-05-07 11:08 | -8.16390 | 24.06366 | 33897 ft | 512 kts | 344° |
| 2026-05-07 11:08 | -8.09538 | 24.04531 | 33899 ft | 512 kts | 344° |
| 2026-05-07 11:09 | -8.02665 | 24.02692 | 33902 ft | 512 kts | 345° |
| 2026-05-07 11:09 | -7.95683 | 24.01068 | 33905 ft | 512 kts | 347° |
| 2026-05-07 11:10 | -7.88745 | 23.99519 | 33907 ft | 512 kts | 347° |
| 2026-05-07 11:10 | -7.81789 | 23.97932 | 33906 ft | 512 kts | 347° |
| 2026-05-07 11:11 | -7.74827 | 23.96332 | 33912 ft | 512 kts | 347° |
| 2026-05-07 11:11 | -7.67917 | 23.94744 | 33911 ft | 512 kts | 347° |
| 2026-05-07 11:12 | -7.60958 | 23.93145 | 33905 ft | 512 kts | 347° |
| 2026-05-07 11:12 | -7.54000 | 23.91548 | 33903 ft | 511 kts | 347° |
| 2026-05-07 11:13 | -7.47103 | 23.89964 | 33898 ft | 511 kts | 347° |
| 2026-05-07 11:13 | -7.40154 | 23.88370 | 33905 ft | 511 kts | 347° |
| 2026-05-07 11:14 | -7.33218 | 23.86779 | 33892 ft | 511 kts | 347° |
| 2026-05-07 11:14 | -7.26323 | 23.85197 | 33897 ft | 510 kts | 347° |
| 2026-05-07 11:15 | -7.19390 | 23.83516 | 33897 ft | 510 kts | 346° |
| 2026-05-07 11:15 | -7.12553 | 23.81771 | 33901 ft | 510 kts | 346° |
| 2026-05-07 11:16 | -7.05648 | 23.80027 | 33897 ft | 510 kts | 346° |
| 2026-05-07 11:16 | -6.98793 | 23.78307 | 33896 ft | 510 kts | 346° |
| 2026-05-07 11:17 | -6.91892 | 23.76578 | 33927 ft | 510 kts | 346° |
| 2026-05-07 11:17 | -6.84998 | 23.74851 | 33936 ft | 510 kts | 346° |
| 2026-05-07 11:18 | -6.78146 | 23.73134 | 33941 ft | 510 kts | 346° |
| 2026-05-07 11:18 | -6.71256 | 23.71409 | 33940 ft | 510 kts | 346° |
| 2026-05-07 11:19 | -6.64574 | 23.69736 | 33942 ft | 510 kts | 346° |
| 2026-05-07 11:19 | -6.57613 | 23.67994 | 33937 ft | 510 kts | 346° |
| 2026-05-07 11:20 | -6.50747 | 23.66276 | 33938 ft | 510 kts | 346° |
| 2026-05-07 11:20 | -6.43847 | 23.64550 | 33950 ft | 510 kts | 346° |
| 2026-05-07 11:21 | -6.36980 | 23.62832 | 33965 ft | 511 kts | 346° |
| 2026-05-07 11:21 | -6.30072 | 23.61105 | 33973 ft | 511 kts | 346° |
| 2026-05-07 11:22 | -6.23144 | 23.59374 | 33986 ft | 511 kts | 346° |
| 2026-05-07 11:22 | -6.16270 | 23.57656 | 33995 ft | 511 kts | 346° |
| 2026-05-07 11:23 | -6.09354 | 23.56100 | 33995 ft | 511 kts | 351° |
| 2026-05-07 11:23 | -6.02339 | 23.54901 | 33989 ft | 511 kts | 351° |
| 2026-05-07 11:24 | -5.95307 | 23.53679 | 33981 ft | 511 kts | 351° |
| 2026-05-07 11:24 | -5.88334 | 23.52469 | 33971 ft | 511 kts | 351° |
| 2026-05-07 11:25 | -5.81315 | 23.51253 | 33952 ft | 512 kts | 351° |
| 2026-05-07 11:25 | -5.74278 | 23.50035 | 33947 ft | 512 kts | 351° |
| 2026-05-07 11:26 | -5.67291 | 23.48825 | 33942 ft | 512 kts | 351° |
| 2026-05-07 11:26 | -5.60243 | 23.47605 | 33944 ft | 512 kts | 351° |
| 2026-05-07 11:27 | -5.53192 | 23.46385 | 33947 ft | 512 kts | 351° |
| 2026-05-07 11:27 | -5.46204 | 23.45191 | 33947 ft | 512 kts | 351° |
| 2026-05-07 11:28 | -5.39161 | 23.43990 | 33942 ft | 513 kts | 351° |
| 2026-05-07 11:28 | -5.32160 | 23.42794 | 33941 ft | 512 kts | 351° |
| 2026-05-07 11:29 | -5.25095 | 23.41588 | 33936 ft | 512 kts | 351° |
| 2026-05-07 11:29 | -5.18061 | 23.40387 | 33933 ft | 512 kts | 351° |
| 2026-05-07 11:30 | -5.11084 | 23.39196 | 33928 ft | 511 kts | 351° |
| 2026-05-07 11:30 | -5.04061 | 23.37997 | 33920 ft | 511 kts | 351° |
| 2026-05-07 11:31 | -4.97080 | 23.36806 | 33917 ft | 511 kts | 351° |
| 2026-05-07 11:31 | -4.90052 | 23.35607 | 33913 ft | 511 kts | 351° |
| 2026-05-07 11:32 | -4.79572 | 23.33820 | 33909 ft | 511 kts | 351° |
| 2026-05-07 11:33 | -4.72546 | 23.32621 | 33905 ft | 511 kts | 351° |
| 2026-05-07 11:33 | -4.65550 | 23.31429 | 33904 ft | 512 kts | 351° |
| 2026-05-07 11:34 | -4.58506 | 23.30228 | 33903 ft | 512 kts | 351° |
| 2026-05-07 11:34 | -4.51512 | 23.29036 | 33903 ft | 511 kts | 351° |
| 2026-05-07 11:35 | -4.44521 | 23.27845 | 33891 ft | 511 kts | 351° |
| 2026-05-07 11:35 | -4.37495 | 23.26648 | 33887 ft | 511 kts | 351° |
| 2026-05-07 11:36 | -4.30482 | 23.25453 | 33886 ft | 511 kts | 351° |
| 2026-05-07 11:36 | -4.23451 | 23.24256 | 33882 ft | 512 kts | 351° |
| 2026-05-07 11:37 | -4.16461 | 23.23066 | 33885 ft | 512 kts | 351° |
| 2026-05-07 11:37 | -4.09422 | 23.21860 | 33874 ft | 511 kts | 349° |
| 2026-05-07 11:38 | -4.02646 | 23.19807 | 33875 ft | 513 kts | 338° |
| 2026-05-07 11:38 | -3.96322 | 23.16490 | 33875 ft | 513 kts | 331° |
| 2026-05-07 11:39 | -3.90088 | 23.12975 | 33872 ft | 514 kts | 331° |
| 2026-05-07 11:39 | -3.83879 | 23.09488 | 33876 ft | 514 kts | 331° |
| 2026-05-07 11:40 | -3.77631 | 23.05974 | 33879 ft | 514 kts | 331° |
| 2026-05-07 11:40 | -3.71425 | 23.02482 | 33880 ft | 514 kts | 331° |
| 2026-05-07 11:41 | -3.65179 | 22.98967 | 33881 ft | 513 kts | 331° |
| 2026-05-07 11:41 | -3.58951 | 22.95464 | 33880 ft | 513 kts | 331° |
| 2026-05-07 11:42 | -3.52760 | 22.91982 | 33872 ft | 512 kts | 331° |
| 2026-05-07 11:42 | -3.46533 | 22.88480 | 33871 ft | 512 kts | 331° |
| 2026-05-07 11:43 | -3.40489 | 22.85082 | 33867 ft | 512 kts | 331° |
| 2026-05-07 11:43 | -3.34269 | 22.81588 | 33865 ft | 512 kts | 332° |
| 2026-05-07 11:44 | -3.28032 | 22.78118 | 33863 ft | 512 kts | 332° |
| 2026-05-07 11:44 | -3.21816 | 22.74662 | 33860 ft | 513 kts | 332° |
| 2026-05-07 11:45 | -3.15602 | 22.71204 | 33858 ft | 513 kts | 332° |
| 2026-05-07 11:45 | -3.09351 | 22.67724 | 33861 ft | 514 kts | 332° |
| 2026-05-07 11:46 | -3.03082 | 22.64236 | 33868 ft | 515 kts | 332° |
| 2026-05-07 11:46 | -2.96840 | 22.60763 | 33875 ft | 515 kts | 332° |
| 2026-05-07 11:47 | -2.90569 | 22.57273 | 33876 ft | 515 kts | 332° |
| 2026-05-07 11:47 | -2.84335 | 22.53805 | 33874 ft | 514 kts | 332° |
| 2026-05-07 11:48 | -2.78067 | 22.50319 | 33879 ft | 514 kts | 332° |
| 2026-05-07 11:48 | -2.71816 | 22.46842 | 33870 ft | 513 kts | 332° |
| 2026-05-07 11:49 | -2.65599 | 22.43385 | 33865 ft | 513 kts | 332° |
| 2026-05-07 11:49 | -2.59365 | 22.39919 | 33866 ft | 512 kts | 331° |
| 2026-05-07 11:50 | -2.53158 | 22.36468 | 33863 ft | 512 kts | 331° |
| 2026-05-07 11:50 | -2.46856 | 22.32965 | 33858 ft | 522 kts | 331° |
| 2026-05-07 11:51 | -2.40582 | 22.29478 | 33859 ft | 512 kts | 331° |
| 2026-05-07 11:51 | -2.34369 | 22.26024 | 33858 ft | 509 kts | 331° |
| 2026-05-07 11:52 | -2.28187 | 22.22589 | 33858 ft | 510 kts | 331° |
| 2026-05-07 11:52 | -2.21978 | 22.19139 | 33857 ft | 510 kts | 331° |
| 2026-05-07 11:53 | -2.15803 | 22.15708 | 33856 ft | 510 kts | 331° |
| 2026-05-07 11:53 | -2.10599 | 22.12816 | 33850 ft | 509 kts | 331° |
| 2026-05-07 11:54 | -2.04434 | 22.09392 | 33849 ft | 509 kts | 331° |
| 2026-05-07 11:54 | -1.98235 | 22.05948 | 33847 ft | 509 kts | 331° |
| 2026-05-07 11:55 | -1.92018 | 22.02495 | 33857 ft | 514 kts | 331° |
| 2026-05-07 11:55 | -1.85759 | 21.99019 | 33856 ft | 514 kts | 331° |
| 2026-05-07 11:56 | -1.79559 | 21.95576 | 33857 ft | 510 kts | 331° |
| 2026-05-07 11:56 | -1.73333 | 21.92119 | 33855 ft | 511 kts | 331° |
| 2026-05-07 11:57 | -1.67147 | 21.88684 | 33852 ft | 511 kts | 331° |
| 2026-05-07 11:57 | -1.60889 | 21.85209 | 33855 ft | 511 kts | 331° |
| 2026-05-07 11:58 | -1.54701 | 21.81774 | 33852 ft | 511 kts | 331° |
| 2026-05-07 11:58 | -1.48482 | 21.78321 | 33849 ft | 511 kts | 331° |
| 2026-05-07 11:59 | -1.42289 | 21.74883 | 33850 ft | 511 kts | 331° |
| 2026-05-07 11:59 | -1.36057 | 21.71424 | 33848 ft | 511 kts | 331° |
| 2026-05-07 12:00 | -1.29823 | 21.67964 | 33850 ft | 511 kts | 331° |
| 2026-05-07 12:00 | -1.23602 | 21.64513 | 34273 ft | 513 kts | 331° |
| 2026-05-07 12:00 | -1.20478 | 21.62779 | 34722 ft | 511 kts | 331° |
| 2026-05-07 12:01 | -1.17357 | 21.61047 | 35119 ft | 510 kts | 331° |
| 2026-05-07 12:01 | -1.14255 | 21.59326 | 35520 ft | 508 kts | 331° |
| 2026-05-07 12:01 | -1.11199 | 21.57630 | 35791 ft | 507 kts | 331° |
| 2026-05-07 12:02 | -1.05044 | 21.54215 | 35852 ft | 505 kts | 331° |
| 2026-05-07 12:02 | -0.98899 | 21.50806 | 35851 ft | 505 kts | 331° |
| 2026-05-07 12:03 | -0.92745 | 21.47392 | 35851 ft | 505 kts | 331° |
| 2026-05-07 12:03 | -0.86633 | 21.44001 | 35851 ft | 505 kts | 331° |
| 2026-05-07 12:04 | -0.80470 | 21.40583 | 35854 ft | 505 kts | 331° |
| 2026-05-07 12:04 | -0.74328 | 21.37175 | 35855 ft | 505 kts | 331° |
| 2026-05-07 12:05 | -0.68219 | 21.33787 | 35848 ft | 504 kts | 331° |
| 2026-05-07 12:05 | -0.62066 | 21.30374 | 35849 ft | 504 kts | 331° |
| 2026-05-07 12:06 | -0.55955 | 21.26984 | 35845 ft | 503 kts | 331° |
| 2026-05-07 12:06 | -0.49851 | 21.23599 | 35849 ft | 503 kts | 331° |
| 2026-05-07 12:07 | -0.43717 | 21.20197 | 35851 ft | 503 kts | 331° |
| 2026-05-07 12:07 | -0.37597 | 21.16802 | 35847 ft | 503 kts | 331° |
| 2026-05-07 12:08 | -0.31507 | 21.13425 | 35847 ft | 503 kts | 331° |
| 2026-05-07 12:08 | -0.25381 | 21.10027 | 35851 ft | 503 kts | 331° |
| 2026-05-07 12:09 | -0.19301 | 21.06655 | 35851 ft | 503 kts | 331° |
| 2026-05-07 12:09 | -0.13170 | 21.03253 | 35852 ft | 503 kts | 331° |
| 2026-05-07 12:10 | -0.07045 | 20.99852 | 35854 ft | 503 kts | 331° |
| 2026-05-07 12:10 | -0.00919 | 20.96451 | 35854 ft | 503 kts | 331° |
| 2026-05-07 12:11 | 0.05171 | 20.93070 | 35855 ft | 503 kts | 331° |
| 2026-05-07 12:11 | 0.11276 | 20.89682 | 35857 ft | 503 kts | 331° |
| 2026-05-07 12:12 | 0.17412 | 20.86276 | 35860 ft | 503 kts | 331° |
| 2026-05-07 12:12 | 0.23506 | 20.82893 | 35854 ft | 502 kts | 331° |
| 2026-05-07 12:13 | 0.29632 | 20.79493 | 35855 ft | 502 kts | 331° |
| 2026-05-07 12:13 | 0.35715 | 20.76116 | 35852 ft | 502 kts | 331° |
| 2026-05-07 12:14 | 0.41823 | 20.72725 | 35852 ft | 501 kts | 331° |
| 2026-05-07 12:14 | 0.47928 | 20.69336 | 35851 ft | 501 kts | 331° |
| 2026-05-07 12:15 | 0.54001 | 20.65965 | 35850 ft | 501 kts | 331° |
| 2026-05-07 12:15 | 0.60102 | 20.62578 | 35848 ft | 501 kts | 331° |
| 2026-05-07 12:16 | 0.66205 | 20.59190 | 35851 ft | 501 kts | 331° |
| 2026-05-07 12:16 | 0.72268 | 20.55826 | 35851 ft | 500 kts | 331° |
| 2026-05-07 12:17 | 0.78333 | 20.52460 | 35850 ft | 500 kts | 331° |
| 2026-05-07 12:17 | 0.84443 | 20.49069 | 35851 ft | 500 kts | 331° |
| 2026-05-07 12:18 | 0.90499 | 20.45707 | 35850 ft | 500 kts | 331° |
| 2026-05-07 12:18 | 0.96594 | 20.42324 | 35853 ft | 500 kts | 331° |
| 2026-05-07 12:19 | 1.02675 | 20.38949 | 35851 ft | 500 kts | 331° |
| 2026-05-07 12:19 | 1.08738 | 20.35583 | 35853 ft | 499 kts | 331° |
| 2026-05-07 12:20 | 1.14826 | 20.32204 | 35853 ft | 499 kts | 331° |
| 2026-05-07 12:20 | 1.20900 | 20.28832 | 35853 ft | 499 kts | 331° |
| 2026-05-07 12:21 | 1.26952 | 20.25472 | 35854 ft | 499 kts | 331° |
| 2026-05-07 12:21 | 1.33036 | 20.22094 | 35854 ft | 498 kts | 331° |
| 2026-05-07 12:22 | 1.39068 | 20.18745 | 35851 ft | 498 kts | 331° |
| 2026-05-07 12:22 | 1.45148 | 20.15369 | 35854 ft | 498 kts | 331° |
| 2026-05-07 12:23 | 1.51168 | 20.12032 | 35858 ft | 498 kts | 331° |
| 2026-05-07 12:23 | 1.57259 | 20.08654 | 35858 ft | 498 kts | 331° |
| 2026-05-07 12:24 | 1.63275 | 20.05318 | 35855 ft | 497 kts | 331° |
| 2026-05-07 12:24 | 1.69348 | 20.01950 | 35857 ft | 497 kts | 331° |
| 2026-05-07 12:25 | 1.75408 | 19.98589 | 35855 ft | 497 kts | 331° |
| 2026-05-07 12:25 | 1.81431 | 19.95247 | 35857 ft | 497 kts | 331° |
| 2026-05-07 12:26 | 1.87464 | 19.91904 | 35858 ft | 497 kts | 331° |
| 2026-05-07 12:26 | 1.93526 | 19.88548 | 35859 ft | 497 kts | 331° |
| 2026-05-07 12:27 | 1.99580 | 19.85196 | 35857 ft | 497 kts | 332° |
| 2026-05-07 12:27 | 2.05648 | 19.81835 | 35856 ft | 497 kts | 331° |
| 2026-05-07 12:28 | 2.11676 | 19.78496 | 35856 ft | 497 kts | 332° |
| 2026-05-07 12:28 | 2.17738 | 19.75137 | 35859 ft | 497 kts | 332° |
| 2026-05-07 12:29 | 2.23761 | 19.71801 | 35859 ft | 497 kts | 332° |
| 2026-05-07 12:29 | 2.29828 | 19.68435 | 35857 ft | 497 kts | 331° |
| 2026-05-07 12:30 | 2.35884 | 19.65053 | 35864 ft | 497 kts | 331° |
| 2026-05-07 12:30 | 2.41928 | 19.61678 | 35866 ft | 497 kts | 331° |
| 2026-05-07 12:31 | 2.47944 | 19.58320 | 35864 ft | 498 kts | 331° |
| 2026-05-07 12:31 | 2.53999 | 19.54941 | 35866 ft | 498 kts | 331° |
| 2026-05-07 12:32 | 2.60055 | 19.51561 | 35871 ft | 498 kts | 331° |
| 2026-05-07 12:32 | 2.66078 | 19.48199 | 35869 ft | 498 kts | 332° |
| 2026-05-07 12:33 | 2.75198 | 19.43120 | 35872 ft | 499 kts | 332° |
| 2026-05-07 12:33 | 2.81228 | 19.39761 | 35870 ft | 499 kts | 332° |
| 2026-05-07 12:34 | 2.87310 | 19.36372 | 35876 ft | 499 kts | 332° |
| 2026-05-07 12:34 | 2.93346 | 19.33009 | 35877 ft | 499 kts | 332° |
| 2026-05-07 12:35 | 2.99425 | 19.29621 | 35879 ft | 499 kts | 332° |
| 2026-05-07 12:35 | 3.05492 | 19.26239 | 35880 ft | 499 kts | 332° |
| 2026-05-07 12:36 | 3.11569 | 19.22852 | 35880 ft | 499 kts | 332° |
| 2026-05-07 12:36 | 3.17600 | 19.19489 | 35883 ft | 499 kts | 332° |
| 2026-05-07 12:37 | 3.23673 | 19.16102 | 35887 ft | 499 kts | 332° |
| 2026-05-07 12:37 | 3.29720 | 19.12730 | 35882 ft | 499 kts | 332° |
| 2026-05-07 12:38 | 3.35793 | 19.09343 | 35881 ft | 499 kts | 332° |
| 2026-05-07 12:38 | 3.41865 | 19.05955 | 35888 ft | 499 kts | 332° |
| 2026-05-07 12:39 | 3.47899 | 19.02589 | 35887 ft | 498 kts | 332° |
| 2026-05-07 12:39 | 3.53969 | 18.99205 | 35891 ft | 498 kts | 332° |
| 2026-05-07 12:40 | 3.59017 | 18.96407 | 35893 ft | 498 kts | 332° |
| 2026-05-07 12:40 | 3.66071 | 18.92499 | 35891 ft | 498 kts | 332° |
| 2026-05-07 12:41 | 3.71119 | 18.89700 | 35899 ft | 498 kts | 332° |
| 2026-05-07 12:41 | 3.77188 | 18.86333 | 35901 ft | 497 kts | 332° |
| 2026-05-07 12:42 | 3.83248 | 18.82970 | 35900 ft | 497 kts | 332° |
| 2026-05-07 12:42 | 3.89249 | 18.79640 | 35900 ft | 496 kts | 332° |
| 2026-05-07 12:43 | 3.95299 | 18.76282 | 35902 ft | 496 kts | 332° |
| 2026-05-07 12:43 | 4.01338 | 18.72929 | 35905 ft | 495 kts | 332° |
| 2026-05-07 12:44 | 4.07356 | 18.69559 | 35901 ft | 494 kts | 332° |
| 2026-05-07 12:44 | 4.13331 | 18.66209 | 35909 ft | 494 kts | 332° |
| 2026-05-07 12:45 | 4.19331 | 18.62848 | 35906 ft | 493 kts | 332° |
| 2026-05-07 12:45 | 4.25306 | 18.59501 | 35906 ft | 493 kts | 332° |
| 2026-05-07 12:46 | 4.31298 | 18.56144 | 35909 ft | 493 kts | 332° |
| 2026-05-07 12:46 | 4.37283 | 18.52799 | 35908 ft | 492 kts | 334° |
| 2026-05-07 12:47 | 4.43521 | 18.49973 | 35908 ft | 490 kts | 338° |
| 2026-05-07 12:47 | 4.49733 | 18.47233 | 35907 ft | 490 kts | 338° |
| 2026-05-07 12:48 | 4.55996 | 18.44465 | 35908 ft | 490 kts | 338° |
| 2026-05-07 12:48 | 4.62226 | 18.41712 | 35907 ft | 490 kts | 338° |
| 2026-05-07 12:49 | 4.68476 | 18.38951 | 35907 ft | 491 kts | 338° |
| 2026-05-07 12:49 | 4.74699 | 18.36201 | 35906 ft | 491 kts | 338° |
| 2026-05-07 12:50 | 4.80957 | 18.33436 | 35902 ft | 491 kts | 337° |
| 2026-05-07 12:50 | 4.87213 | 18.30670 | 35902 ft | 491 kts | 337° |
| 2026-05-07 12:51 | 4.93427 | 18.27923 | 35903 ft | 491 kts | 337° |
| 2026-05-07 12:51 | 4.99676 | 18.25160 | 35903 ft | 491 kts | 337° |
| 2026-05-07 12:52 | 5.05929 | 18.22394 | 35904 ft | 491 kts | 337° |
| 2026-05-07 12:52 | 5.12188 | 18.19625 | 35901 ft | 490 kts | 337° |
| 2026-05-07 12:53 | 5.18415 | 18.16870 | 35901 ft | 490 kts | 337° |
| 2026-05-07 12:53 | 5.24671 | 18.14104 | 35899 ft | 490 kts | 337° |
| 2026-05-07 12:54 | 5.30879 | 18.11359 | 35894 ft | 490 kts | 337° |
| 2026-05-07 12:54 | 5.37131 | 18.08595 | 35892 ft | 489 kts | 337° |
| 2026-05-07 12:55 | 5.43341 | 18.05848 | 35886 ft | 489 kts | 337° |
| 2026-05-07 12:55 | 5.49581 | 18.03087 | 35884 ft | 489 kts | 337° |
| 2026-05-07 12:56 | 5.55785 | 18.00341 | 35883 ft | 489 kts | 337° |
| 2026-05-07 12:56 | 5.62022 | 17.97580 | 35882 ft | 489 kts | 337° |
| 2026-05-07 12:57 | 5.68264 | 17.94816 | 35876 ft | 489 kts | 337° |
| 2026-05-07 12:57 | 5.74465 | 17.92070 | 35878 ft | 489 kts | 337° |
| 2026-05-07 12:58 | 5.80701 | 17.89307 | 35873 ft | 489 kts | 337° |
| 2026-05-07 12:58 | 5.86926 | 17.86549 | 35867 ft | 489 kts | 337° |
| 2026-05-07 12:59 | 5.93152 | 17.83789 | 35869 ft | 489 kts | 337° |
| 2026-05-07 12:59 | 5.99332 | 17.81050 | 35861 ft | 488 kts | 337° |
| 2026-05-07 13:00 | 6.05558 | 17.78289 | 35861 ft | 488 kts | 337° |
| 2026-05-07 13:00 | 6.11783 | 17.75528 | 35858 ft | 488 kts | 337° |
| 2026-05-07 13:01 | 6.17965 | 17.72785 | 35856 ft | 488 kts | 337° |
| 2026-05-07 13:01 | 6.24193 | 17.70021 | 35851 ft | 488 kts | 337° |
| 2026-05-07 13:02 | 6.30404 | 17.67264 | 35848 ft | 487 kts | 337° |
| 2026-05-07 13:02 | 6.36576 | 17.64524 | 35840 ft | 487 kts | 337° |
| 2026-05-07 13:03 | 6.42799 | 17.61760 | 35838 ft | 487 kts | 337° |
| 2026-05-07 13:03 | 6.48964 | 17.59021 | 35838 ft | 487 kts | 337° |
| 2026-05-07 13:04 | 6.55166 | 17.56265 | 35832 ft | 487 kts | 337° |
| 2026-05-07 13:04 | 6.61372 | 17.53507 | 35830 ft | 487 kts | 337° |
| 2026-05-07 13:05 | 6.67539 | 17.50765 | 35826 ft | 487 kts | 337° |
| 2026-05-07 13:05 | 6.73744 | 17.48004 | 35826 ft | 487 kts | 337° |
| 2026-05-07 13:06 | 6.79917 | 17.45255 | 35825 ft | 487 kts | 337° |
| 2026-05-07 13:06 | 6.86123 | 17.42491 | 35821 ft | 487 kts | 337° |
| 2026-05-07 13:07 | 6.92321 | 17.39729 | 35815 ft | 486 kts | 337° |
| 2026-05-07 13:07 | 6.98479 | 17.36985 | 35813 ft | 486 kts | 337° |
| 2026-05-07 13:08 | 7.04677 | 17.34223 | 35812 ft | 486 kts | 337° |
| 2026-05-07 13:08 | 7.10831 | 17.31479 | 35811 ft | 486 kts | 337° |
| 2026-05-07 13:09 | 7.17015 | 17.28720 | 35808 ft | 486 kts | 337° |
| 2026-05-07 13:09 | 7.23209 | 17.25957 | 35808 ft | 485 kts | 337° |
| 2026-05-07 13:10 | 7.29338 | 17.23222 | 35804 ft | 485 kts | 337° |
| 2026-05-07 13:10 | 7.35529 | 17.20464 | 35805 ft | 485 kts | 337° |
| 2026-05-07 13:11 | 7.41714 | 17.17709 | 35804 ft | 485 kts | 337° |
| 2026-05-07 13:11 | 7.47865 | 17.14968 | 35801 ft | 485 kts | 337° |
| 2026-05-07 13:12 | 7.54057 | 17.12207 | 35800 ft | 491 kts | 337° |
| 2026-05-07 13:12 | 7.60382 | 17.09387 | 35800 ft | 508 kts | 337° |
| 2026-05-07 13:13 | 7.66867 | 17.06491 | 35800 ft | 507 kts | 337° |
| 2026-05-07 13:13 | 7.73291 | 17.03619 | 35800 ft | 508 kts | 337° |
| 2026-05-07 13:14 | 7.79776 | 17.00719 | 35794 ft | 508 kts | 337° |
| 2026-05-07 13:14 | 7.86253 | 16.97822 | 35795 ft | 508 kts | 337° |
| 2026-05-07 13:15 | 7.92700 | 16.94938 | 35796 ft | 508 kts | 337° |
| 2026-05-07 13:15 | 7.99141 | 16.92056 | 35794 ft | 508 kts | 337° |
| 2026-05-07 13:16 | 8.05621 | 16.89155 | 35793 ft | 508 kts | 337° |
| 2026-05-07 13:16 | 8.12048 | 16.86276 | 35794 ft | 508 kts | 337° |
| 2026-05-07 13:17 | 8.18536 | 16.83371 | 35790 ft | 508 kts | 337° |
| 2026-05-07 13:17 | 8.24966 | 16.80489 | 35794 ft | 508 kts | 337° |
| 2026-05-07 13:18 | 8.31435 | 16.77589 | 35790 ft | 508 kts | 337° |
| 2026-05-07 13:18 | 8.37904 | 16.74688 | 35789 ft | 508 kts | 337° |
| 2026-05-07 13:19 | 8.44340 | 16.71801 | 35787 ft | 508 kts | 337° |
| 2026-05-07 13:19 | 8.50809 | 16.68898 | 35784 ft | 507 kts | 337° |
| 2026-05-07 13:20 | 8.57274 | 16.65996 | 35785 ft | 508 kts | 337° |
| 2026-05-07 13:20 | 8.63709 | 16.63106 | 35785 ft | 507 kts | 337° |
| 2026-05-07 13:21 | 8.70169 | 16.60203 | 35782 ft | 507 kts | 337° |
| 2026-05-07 13:21 | 8.76583 | 16.57321 | 35782 ft | 508 kts | 337° |
| 2026-05-07 13:22 | 8.83049 | 16.54413 | 35779 ft | 508 kts | 337° |
| 2026-05-07 13:22 | 8.89518 | 16.51504 | 35782 ft | 508 kts | 337° |
| 2026-05-07 13:23 | 8.95950 | 16.48610 | 35780 ft | 507 kts | 337° |
| 2026-05-07 13:23 | 9.02408 | 16.45703 | 35781 ft | 507 kts | 337° |
| 2026-05-07 13:24 | 9.08861 | 16.42797 | 35777 ft | 507 kts | 337° |
| 2026-05-07 13:24 | 9.15291 | 16.39900 | 35777 ft | 507 kts | 337° |
| 2026-05-07 13:25 | 9.21738 | 16.36995 | 35774 ft | 507 kts | 337° |
| 2026-05-07 13:25 | 9.28159 | 16.34100 | 35773 ft | 506 kts | 337° |
| 2026-05-07 13:26 | 9.34593 | 16.31198 | 35769 ft | 506 kts | 337° |
| 2026-05-07 13:26 | 9.40989 | 16.28312 | 35769 ft | 505 kts | 337° |
| 2026-05-07 13:27 | 9.47428 | 16.25405 | 35766 ft | 505 kts | 337° |
| 2026-05-07 13:27 | 9.53858 | 16.22502 | 35767 ft | 504 kts | 337° |
| 2026-05-07 13:28 | 9.60243 | 16.19618 | 35762 ft | 504 kts | 337° |
| 2026-05-07 13:28 | 9.65565 | 16.17213 | 35766 ft | 503 kts | 337° |
| 2026-05-07 13:29 | 9.71972 | 16.14316 | 35763 ft | 503 kts | 337° |
| 2026-05-07 13:29 | 9.78357 | 16.11429 | 35760 ft | 503 kts | 337° |
| 2026-05-07 13:30 | 9.84715 | 16.08552 | 35760 ft | 502 kts | 337° |
| 2026-05-07 13:30 | 9.91115 | 16.05655 | 35762 ft | 502 kts | 337° |
| 2026-05-07 13:31 | 9.97515 | 16.02756 | 35760 ft | 502 kts | 337° |
| 2026-05-07 13:31 | 10.03855 | 15.99884 | 35763 ft | 502 kts | 337° |
| 2026-05-07 13:32 | 10.10231 | 15.96995 | 35758 ft | 501 kts | 337° |
| 2026-05-07 13:32 | 10.16615 | 15.94100 | 35757 ft | 501 kts | 337° |
| 2026-05-07 13:33 | 10.22948 | 15.91227 | 35759 ft | 500 kts | 337° |
| 2026-05-07 13:33 | 10.29306 | 15.88342 | 35759 ft | 500 kts | 337° |
| 2026-05-07 13:34 | 10.38808 | 15.84026 | 35755 ft | 500 kts | 337° |
| 2026-05-07 13:35 | 10.45175 | 15.81133 | 35763 ft | 499 kts | 337° |
| 2026-05-07 13:35 | 10.51481 | 15.78266 | 35759 ft | 499 kts | 337° |
| 2026-05-07 13:36 | 10.57822 | 15.75382 | 35766 ft | 498 kts | 337° |
| 2026-05-07 13:36 | 10.64163 | 15.72497 | 35769 ft | 498 kts | 337° |
| 2026-05-07 13:37 | 10.70462 | 15.69629 | 35767 ft | 498 kts | 337° |
| 2026-05-07 13:37 | 10.76801 | 15.66742 | 35773 ft | 497 kts | 337° |
| 2026-05-07 13:38 | 10.83097 | 15.63873 | 35776 ft | 497 kts | 337° |
| 2026-05-07 13:38 | 10.89420 | 15.60991 | 35780 ft | 497 kts | 337° |
| 2026-05-07 13:39 | 10.95738 | 15.58110 | 35775 ft | 497 kts | 337° |
| 2026-05-07 13:39 | 11.02011 | 15.55248 | 35777 ft | 496 kts | 337° |
| 2026-05-07 13:40 | 11.08315 | 15.52370 | 35787 ft | 496 kts | 337° |
| 2026-05-07 13:40 | 11.14595 | 15.49501 | 35782 ft | 496 kts | 336° |
| 2026-05-07 13:41 | 11.20908 | 15.46617 | 35787 ft | 496 kts | 336° |
| 2026-05-07 13:41 | 11.27209 | 15.43736 | 35784 ft | 495 kts | 336° |
| 2026-05-07 13:42 | 11.33465 | 15.40875 | 35790 ft | 496 kts | 336° |
| 2026-05-07 13:42 | 11.39767 | 15.37991 | 35786 ft | 495 kts | 336° |
| 2026-05-07 13:43 | 11.46081 | 15.35100 | 35787 ft | 495 kts | 336° |
| 2026-05-07 13:43 | 11.52348 | 15.32230 | 35787 ft | 495 kts | 336° |
| 2026-05-07 13:44 | 11.58631 | 15.29350 | 35787 ft | 495 kts | 336° |
| 2026-05-07 13:44 | 11.64892 | 15.26479 | 35791 ft | 495 kts | 336° |
| 2026-05-07 13:45 | 11.71181 | 15.23594 | 35789 ft | 495 kts | 336° |
| 2026-05-07 13:45 | 11.77431 | 15.20726 | 35793 ft | 495 kts | 336° |
| 2026-05-07 13:46 | 11.83711 | 15.17842 | 35791 ft | 495 kts | 336° |
| 2026-05-07 13:46 | 11.90003 | 15.14952 | 35794 ft | 495 kts | 336° |
| 2026-05-07 13:47 | 11.96256 | 15.12077 | 35800 ft | 494 kts | 336° |
| 2026-05-07 13:47 | 12.02542 | 15.09186 | 35799 ft | 494 kts | 336° |
| 2026-05-07 13:48 | 12.08821 | 15.06297 | 35803 ft | 494 kts | 336° |
| 2026-05-07 13:48 | 12.15106 | 15.03561 | 35803 ft | 494 kts | 341° |
| 2026-05-07 13:49 | 12.21719 | 15.01535 | 35803 ft | 494 kts | 343° |
| 2026-05-07 13:49 | 12.28305 | 14.99518 | 35799 ft | 493 kts | 343° |
| 2026-05-07 13:50 | 12.34849 | 14.97513 | 35797 ft | 493 kts | 343° |
| 2026-05-07 13:50 | 12.41436 | 14.95496 | 35794 ft | 493 kts | 343° |
| 2026-05-07 13:51 | 12.48024 | 14.93479 | 35791 ft | 493 kts | 343° |
| 2026-05-07 13:51 | 12.54558 | 14.91478 | 35790 ft | 493 kts | 343° |
| 2026-05-07 13:52 | 12.61146 | 14.89458 | 35788 ft | 493 kts | 343° |
| 2026-05-07 13:52 | 12.67698 | 14.87449 | 35789 ft | 493 kts | 343° |
| 2026-05-07 13:53 | 12.74249 | 14.85439 | 35787 ft | 493 kts | 343° |
| 2026-05-07 13:53 | 12.80823 | 14.83421 | 35786 ft | 492 kts | 343° |
| 2026-05-07 13:54 | 12.87405 | 14.81399 | 35788 ft | 492 kts | 343° |
| 2026-05-07 13:54 | 12.93953 | 14.79386 | 35789 ft | 492 kts | 343° |
| 2026-05-07 13:55 | 13.00525 | 14.77366 | 35791 ft | 492 kts | 343° |
| 2026-05-07 13:55 | 13.07048 | 14.75358 | 35790 ft | 492 kts | 343° |
| 2026-05-07 13:56 | 13.13608 | 14.73340 | 35794 ft | 492 kts | 343° |
| 2026-05-07 13:56 | 13.20171 | 14.71317 | 35792 ft | 492 kts | 343° |
| 2026-05-07 13:57 | 13.26563 | 14.69347 | 35791 ft | 491 kts | 343° |
| 2026-05-07 13:57 | 13.33081 | 14.67338 | 35788 ft | 491 kts | 343° |
| 2026-05-07 13:58 | 13.39651 | 14.65311 | 35785 ft | 491 kts | 343° |
| 2026-05-07 13:58 | 13.46178 | 14.63296 | 35786 ft | 491 kts | 343° |
| 2026-05-07 13:59 | 13.52724 | 14.61274 | 35783 ft | 491 kts | 343° |
| 2026-05-07 13:59 | 13.59267 | 14.59252 | 35783 ft | 490 kts | 343° |
| 2026-05-07 14:00 | 13.65769 | 14.57241 | 35783 ft | 490 kts | 343° |
| 2026-05-07 14:00 | 13.72310 | 14.55217 | 35784 ft | 489 kts | 343° |
| 2026-05-07 14:01 | 13.78802 | 14.53207 | 35786 ft | 489 kts | 343° |
| 2026-05-07 14:01 | 13.85328 | 14.51185 | 35782 ft | 489 kts | 343° |
| 2026-05-07 14:02 | 13.91821 | 14.49173 | 35779 ft | 488 kts | 342° |
| 2026-05-07 14:02 | 13.98335 | 14.47152 | 35778 ft | 488 kts | 342° |
| 2026-05-07 14:03 | 14.04812 | 14.45142 | 35780 ft | 488 kts | 342° |
| 2026-05-07 14:03 | 14.11310 | 14.43125 | 35782 ft | 487 kts | 342° |
| 2026-05-07 14:04 | 14.17776 | 14.41115 | 35784 ft | 487 kts | 342° |
| 2026-05-07 14:04 | 14.24295 | 14.39089 | 35781 ft | 487 kts | 342° |
| 2026-05-07 14:05 | 14.30785 | 14.37070 | 35781 ft | 487 kts | 342° |
| 2026-05-07 14:05 | 14.37253 | 14.35057 | 35782 ft | 487 kts | 342° |
| 2026-05-07 14:06 | 14.43715 | 14.33045 | 35784 ft | 486 kts | 342° |
| 2026-05-07 14:06 | 14.50200 | 14.31023 | 35786 ft | 486 kts | 342° |
| 2026-05-07 14:07 | 14.56684 | 14.29001 | 35785 ft | 486 kts | 342° |
| 2026-05-07 14:07 | 14.63133 | 14.26989 | 35787 ft | 486 kts | 342° |
| 2026-05-07 14:08 | 14.69618 | 14.24965 | 35786 ft | 486 kts | 342° |
| 2026-05-07 14:08 | 14.76065 | 14.22951 | 35786 ft | 486 kts | 342° |
| 2026-05-07 14:09 | 14.82553 | 14.20923 | 35787 ft | 485 kts | 342° |
| 2026-05-07 14:09 | 14.88984 | 14.18911 | 35784 ft | 485 kts | 342° |
| 2026-05-07 14:10 | 14.95470 | 14.16881 | 35783 ft | 485 kts | 342° |
| 2026-05-07 14:10 | 15.01906 | 14.14866 | 35781 ft | 485 kts | 342° |
| 2026-05-07 14:11 | 15.08369 | 14.12841 | 35783 ft | 485 kts | 342° |
| 2026-05-07 14:11 | 15.14845 | 14.10810 | 35782 ft | 485 kts | 342° |
| 2026-05-07 14:12 | 15.21311 | 14.08781 | 35782 ft | 485 kts | 342° |
| 2026-05-07 14:12 | 15.27742 | 14.06762 | 35781 ft | 485 kts | 342° |
| 2026-05-07 14:13 | 15.34220 | 14.04727 | 35781 ft | 485 kts | 342° |
| 2026-05-07 14:13 | 15.40655 | 14.02703 | 35780 ft | 485 kts | 342° |
| 2026-05-07 14:14 | 15.47132 | 14.00666 | 35777 ft | 485 kts | 342° |
| 2026-05-07 14:14 | 15.53608 | 13.98628 | 35777 ft | 485 kts | 342° |
| 2026-05-07 14:15 | 15.60039 | 13.96602 | 35779 ft | 485 kts | 342° |
| 2026-05-07 14:15 | 15.66518 | 13.94559 | 35779 ft | 485 kts | 342° |
| 2026-05-07 14:16 | 15.72986 | 13.92519 | 35775 ft | 486 kts | 342° |
| 2026-05-07 14:16 | 15.79424 | 13.90488 | 35774 ft | 486 kts | 341° |
| 2026-05-07 14:17 | 15.84810 | 13.88787 | 35777 ft | 486 kts | 341° |
| 2026-05-07 14:17 | 15.91289 | 13.86739 | 35772 ft | 486 kts | 341° |
| 2026-05-07 14:18 | 15.97728 | 13.84703 | 35772 ft | 486 kts | 341° |
| 2026-05-07 14:18 | 16.04201 | 13.82655 | 35772 ft | 486 kts | 341° |
| 2026-05-07 14:19 | 16.10688 | 13.80601 | 35776 ft | 486 kts | 341° |
| 2026-05-07 14:19 | 16.17132 | 13.78559 | 35772 ft | 486 kts | 341° |
| 2026-05-07 14:20 | 16.23612 | 13.76504 | 35769 ft | 486 kts | 341° |
| 2026-05-07 14:20 | 16.30089 | 13.74449 | 35769 ft | 486 kts | 341° |
| 2026-05-07 14:21 | 16.36513 | 13.72410 | 35777 ft | 486 kts | 341° |
| 2026-05-07 14:21 | 16.42986 | 13.70353 | 35774 ft | 486 kts | 341° |
| 2026-05-07 14:22 | 16.49428 | 13.68304 | 35780 ft | 486 kts | 341° |
| 2026-05-07 14:22 | 16.55909 | 13.66243 | 35774 ft | 486 kts | 341° |
| 2026-05-07 14:23 | 16.62385 | 13.64181 | 35777 ft | 486 kts | 341° |
| 2026-05-07 14:23 | 16.68822 | 13.62129 | 35782 ft | 486 kts | 341° |
| 2026-05-07 14:24 | 16.75312 | 13.60060 | 35784 ft | 486 kts | 341° |
| 2026-05-07 14:24 | 16.81737 | 13.58009 | 35782 ft | 486 kts | 341° |
| 2026-05-07 14:25 | 16.88213 | 13.55941 | 35783 ft | 486 kts | 341° |
| 2026-05-07 14:25 | 16.94664 | 13.53880 | 35788 ft | 486 kts | 341° |
| 2026-05-07 14:26 | 17.01136 | 13.51810 | 35783 ft | 486 kts | 341° |
| 2026-05-07 14:26 | 17.07619 | 13.49736 | 35790 ft | 485 kts | 340° |
| 2026-05-07 14:27 | 17.14042 | 13.47678 | 35793 ft | 486 kts | 340° |
| 2026-05-07 14:27 | 17.20523 | 13.45601 | 35782 ft | 485 kts | 340° |
| 2026-05-07 14:28 | 17.26953 | 13.43539 | 35785 ft | 485 kts | 340° |
| 2026-05-07 14:28 | 17.33421 | 13.41463 | 35787 ft | 485 kts | 340° |
| 2026-05-07 14:29 | 17.39881 | 13.39388 | 35800 ft | 485 kts | 340° |
| 2026-05-07 14:29 | 17.46351 | 13.37308 | 35805 ft | 485 kts | 340° |
| 2026-05-07 14:30 | 17.52763 | 13.35246 | 35803 ft | 485 kts | 340° |
| 2026-05-07 14:30 | 17.59214 | 13.33169 | 35807 ft | 484 kts | 340° |
| 2026-05-07 14:31 | 17.65676 | 13.31087 | 35792 ft | 485 kts | 340° |
| 2026-05-07 14:31 | 17.72094 | 13.29018 | 35791 ft | 484 kts | 340° |
| 2026-05-07 14:32 | 17.78532 | 13.26941 | 35794 ft | 484 kts | 340° |
| 2026-05-07 14:32 | 17.84981 | 13.24859 | 35798 ft | 484 kts | 340° |
| 2026-05-07 14:33 | 17.91443 | 13.22771 | 35796 ft | 484 kts | 340° |
| 2026-05-07 14:33 | 17.97835 | 13.20704 | 35798 ft | 484 kts | 340° |
| 2026-05-07 14:34 | 18.04274 | 13.18620 | 35800 ft | 484 kts | 340° |
| 2026-05-07 14:34 | 18.10734 | 13.16527 | 35798 ft | 484 kts | 340° |
| 2026-05-07 14:35 | 18.17166 | 13.14442 | 35796 ft | 484 kts | 340° |
| 2026-05-07 14:35 | 18.23573 | 13.12364 | 35795 ft | 484 kts | 339° |
| 2026-05-07 14:36 | 18.30021 | 13.10271 | 35798 ft | 484 kts | 339° |
| 2026-05-07 14:36 | 18.36460 | 13.08179 | 35792 ft | 484 kts | 339° |
| 2026-05-07 14:37 | 18.42911 | 13.06081 | 35795 ft | 484 kts | 340° |
| 2026-05-07 14:37 | 18.52575 | 13.02936 | 35793 ft | 486 kts | 340° |
| 2026-05-07 14:38 | 18.59050 | 13.00827 | 35795 ft | 486 kts | 340° |
| 2026-05-07 14:38 | 18.65491 | 12.98726 | 35798 ft | 487 kts | 340° |
| 2026-05-07 14:39 | 18.71988 | 12.96606 | 35794 ft | 487 kts | 340° |
| 2026-05-07 14:39 | 18.78438 | 12.94500 | 35794 ft | 487 kts | 340° |
| 2026-05-07 14:40 | 18.84934 | 12.92377 | 35791 ft | 488 kts | 340° |
| 2026-05-07 14:40 | 18.91396 | 12.90263 | 35790 ft | 488 kts | 340° |
| 2026-05-07 14:41 | 18.97774 | 12.87930 | 35792 ft | 485 kts | 333° |
| 2026-05-07 14:41 | 19.03693 | 12.84527 | 35789 ft | 483 kts | 326° |
| 2026-05-07 14:42 | 19.09476 | 12.80854 | 35790 ft | 484 kts | 327° |
| 2026-05-07 14:42 | 19.15230 | 12.77213 | 35787 ft | 484 kts | 327° |
| 2026-05-07 14:43 | 19.20984 | 12.73559 | 35786 ft | 483 kts | 327° |
| 2026-05-07 14:43 | 19.26747 | 12.69893 | 35783 ft | 483 kts | 326° |
| 2026-05-07 14:44 | 19.32466 | 12.66254 | 35784 ft | 467 kts | 326° |
| 2026-05-07 14:44 | 19.37952 | 12.62760 | 35785 ft | 458 kts | 326° |
| 2026-05-07 14:45 | 19.43394 | 12.59286 | 35786 ft | 460 kts | 326° |
| 2026-05-07 14:45 | 19.48891 | 12.55777 | 35786 ft | 460 kts | 326° |
| 2026-05-07 14:46 | 19.54338 | 12.52299 | 35783 ft | 459 kts | 326° |
| 2026-05-07 14:46 | 19.59832 | 12.48787 | 35779 ft | 459 kts | 326° |
| 2026-05-07 14:47 | 19.65313 | 12.45280 | 35775 ft | 459 kts | 326° |
| 2026-05-07 14:47 | 19.70789 | 12.41774 | 35778 ft | 459 kts | 326° |
| 2026-05-07 14:48 | 19.76241 | 12.38281 | 35782 ft | 459 kts | 326° |
| 2026-05-07 14:48 | 19.81723 | 12.34766 | 35779 ft | 459 kts | 326° |
| 2026-05-07 14:49 | 19.87168 | 12.31271 | 35770 ft | 459 kts | 326° |
| 2026-05-07 14:49 | 19.92655 | 12.27747 | 35776 ft | 460 kts | 326° |
| 2026-05-07 14:50 | 19.98126 | 12.24230 | 35774 ft | 460 kts | 326° |
| 2026-05-07 14:50 | 20.03579 | 12.20721 | 35773 ft | 460 kts | 326° |
| 2026-05-07 14:51 | 20.09077 | 12.17181 | 35783 ft | 460 kts | 326° |
| 2026-05-07 14:51 | 20.14525 | 12.13670 | 35779 ft | 460 kts | 326° |
| 2026-05-07 14:52 | 20.20009 | 12.10134 | 35775 ft | 460 kts | 326° |
| 2026-05-07 14:52 | 20.25499 | 12.06590 | 35776 ft | 461 kts | 326° |
| 2026-05-07 14:53 | 20.30952 | 12.03067 | 35773 ft | 461 kts | 326° |
| 2026-05-07 14:53 | 20.36442 | 11.99517 | 35766 ft | 461 kts | 325° |
| 2026-05-07 14:54 | 20.41951 | 11.95952 | 35774 ft | 461 kts | 325° |
| 2026-05-07 14:54 | 20.47411 | 11.92416 | 35770 ft | 461 kts | 325° |
| 2026-05-07 14:55 | 20.52907 | 11.88854 | 35770 ft | 462 kts | 325° |
| 2026-05-07 14:55 | 20.58374 | 11.85307 | 35772 ft | 462 kts | 325° |
| 2026-05-07 14:56 | 20.63880 | 11.81729 | 35768 ft | 462 kts | 325° |
| 2026-05-07 14:56 | 20.69385 | 11.78149 | 35772 ft | 462 kts | 325° |
| 2026-05-07 14:57 | 20.74876 | 11.74576 | 35775 ft | 462 kts | 324° |
| 2026-05-07 14:57 | 20.80344 | 11.71015 | 35776 ft | 462 kts | 324° |
| 2026-05-07 14:58 | 20.85848 | 11.67426 | 35773 ft | 462 kts | 324° |
| 2026-05-07 14:58 | 20.91309 | 11.63863 | 35771 ft | 461 kts | 324° |
| 2026-05-07 14:59 | 20.96786 | 11.60286 | 35774 ft | 461 kts | 324° |
| 2026-05-07 14:59 | 21.02277 | 11.56698 | 35766 ft | 460 kts | 324° |
| 2026-05-07 15:00 | 21.07710 | 11.53143 | 35770 ft | 459 kts | 324° |
| 2026-05-07 15:00 | 21.13165 | 11.49572 | 35766 ft | 459 kts | 324° |
| 2026-05-07 15:01 | 21.18576 | 11.46025 | 35768 ft | 458 kts | 324° |
| 2026-05-07 15:01 | 21.24021 | 11.42455 | 35763 ft | 458 kts | 324° |
| 2026-05-07 15:02 | 21.29467 | 11.38881 | 35766 ft | 458 kts | 324° |
| 2026-05-07 15:02 | 21.34908 | 11.35307 | 35764 ft | 458 kts | 324° |
| 2026-05-07 15:03 | 21.40323 | 11.31748 | 35768 ft | 458 kts | 324° |
| 2026-05-07 15:03 | 21.45774 | 11.28161 | 35776 ft | 458 kts | 324° |
| 2026-05-07 15:04 | 21.51167 | 11.24609 | 35770 ft | 458 kts | 324° |
| 2026-05-07 15:04 | 21.56612 | 11.21020 | 35775 ft | 458 kts | 324° |
| 2026-05-07 15:05 | 21.61132 | 11.18038 | 35771 ft | 458 kts | 324° |
| 2026-05-07 15:05 | 21.66547 | 11.14462 | 35772 ft | 458 kts | 323° |
| 2026-05-07 15:06 | 21.71978 | 11.10873 | 35777 ft | 457 kts | 323° |
| 2026-05-07 15:06 | 21.77406 | 11.07282 | 35766 ft | 457 kts | 323° |
| 2026-05-07 15:07 | 21.82822 | 11.03697 | 35779 ft | 457 kts | 323° |
| 2026-05-07 15:07 | 21.88202 | 11.00132 | 35773 ft | 457 kts | 323° |
| 2026-05-07 15:08 | 21.93453 | 10.96649 | 35767 ft | 457 kts | 323° |
| 2026-05-07 15:08 | 21.98853 | 10.93065 | 35762 ft | 457 kts | 323° |
| 2026-05-07 15:09 | 22.04285 | 10.89455 | 35766 ft | 457 kts | 323° |
| 2026-05-07 15:09 | 22.09675 | 10.85871 | 35770 ft | 457 kts | 323° |
| 2026-05-07 15:10 | 22.15100 | 10.82260 | 35772 ft | 457 kts | 323° |
| 2026-05-07 15:10 | 22.20521 | 10.78648 | 35778 ft | 457 kts | 323° |
| 2026-05-07 15:11 | 22.25960 | 10.75020 | 36166 ft | 459 kts | 323° |
| 2026-05-07 15:11 | 22.28661 | 10.73220 | 36735 ft | 455 kts | 323° |
| 2026-05-07 15:11 | 22.31310 | 10.71453 | 37287 ft | 451 kts | 323° |
| 2026-05-07 15:12 | 22.33987 | 10.69666 | 37699 ft | 451 kts | 323° |
| 2026-05-07 15:12 | 22.36676 | 10.67868 | 37781 ft | 448 kts | 322° |
| 2026-05-07 15:12 | 22.41903 | 10.64374 | 37780 ft | 445 kts | 322° |
| 2026-05-07 15:13 | 22.47196 | 10.60827 | 37777 ft | 446 kts | 322° |
| 2026-05-07 15:13 | 22.52427 | 10.57323 | 37776 ft | 445 kts | 322° |
| 2026-05-07 15:14 | 22.57698 | 10.53789 | 37778 ft | 445 kts | 322° |
| 2026-05-07 15:14 | 22.62977 | 10.50247 | 37779 ft | 445 kts | 322° |
| 2026-05-07 15:15 | 22.68327 | 10.46821 | 37763 ft | 447 kts | 324° |
| 2026-05-07 15:15 | 22.73721 | 10.43504 | 37762 ft | 447 kts | 324° |
| 2026-05-07 15:16 | 22.79101 | 10.40160 | 37791 ft | 447 kts | 324° |
| 2026-05-07 15:16 | 22.84493 | 10.36789 | 37793 ft | 447 kts | 323° |
| 2026-05-07 15:17 | 22.89862 | 10.33427 | 37768 ft | 447 kts | 323° |
| 2026-05-07 15:17 | 22.95256 | 10.30046 | 37767 ft | 447 kts | 323° |
| 2026-05-07 15:18 | 23.00623 | 10.26680 | 37767 ft | 447 kts | 323° |
| 2026-05-07 15:18 | 23.06025 | 10.23288 | 37772 ft | 447 kts | 323° |
| 2026-05-07 15:19 | 23.11409 | 10.19905 | 37773 ft | 447 kts | 323° |
| 2026-05-07 15:19 | 23.16771 | 10.16532 | 37773 ft | 447 kts | 323° |
| 2026-05-07 15:20 | 23.22172 | 10.13131 | 37774 ft | 447 kts | 323° |
| 2026-05-07 15:20 | 23.27536 | 10.09751 | 37778 ft | 447 kts | 323° |
| 2026-05-07 15:21 | 23.32936 | 10.06344 | 37775 ft | 447 kts | 323° |
| 2026-05-07 15:21 | 23.38300 | 10.02957 | 37768 ft | 447 kts | 323° |
| 2026-05-07 15:22 | 23.43688 | 9.99552 | 37776 ft | 447 kts | 323° |
| 2026-05-07 15:22 | 23.49086 | 9.96138 | 37772 ft | 447 kts | 323° |
| 2026-05-07 15:23 | 23.54443 | 9.92746 | 37774 ft | 447 kts | 323° |
| 2026-05-07 15:23 | 23.59831 | 9.89330 | 37772 ft | 447 kts | 323° |
| 2026-05-07 15:24 | 23.65183 | 9.85935 | 37780 ft | 447 kts | 323° |
| 2026-05-07 15:24 | 23.70562 | 9.82519 | 37777 ft | 446 kts | 323° |
| 2026-05-07 15:25 | 23.75940 | 9.79101 | 37779 ft | 446 kts | 323° |
| 2026-05-07 15:25 | 23.81266 | 9.75712 | 37774 ft | 445 kts | 322° |
| 2026-05-07 15:26 | 23.86641 | 9.72289 | 37776 ft | 445 kts | 322° |
| 2026-05-07 15:26 | 23.91960 | 9.68898 | 37774 ft | 445 kts | 322° |
| 2026-05-07 15:27 | 23.97301 | 9.65490 | 37779 ft | 444 kts | 322° |
| 2026-05-07 15:27 | 24.02654 | 9.62071 | 37811 ft | 444 kts | 322° |
| 2026-05-07 15:28 | 24.08006 | 9.58649 | 37853 ft | 445 kts | 322° |
| 2026-05-07 15:28 | 24.13321 | 9.55247 | 37892 ft | 445 kts | 322° |
| 2026-05-07 15:29 | 24.18688 | 9.51809 | 37938 ft | 446 kts | 322° |
| 2026-05-07 15:29 | 24.24052 | 9.48386 | 37955 ft | 448 kts | 323° |
| 2026-05-07 15:30 | 24.29778 | 9.45578 | 37963 ft | 459 kts | 332° |
| 2026-05-07 15:30 | 24.36023 | 9.43736 | 37968 ft | 470 kts | 340° |
| 2026-05-07 15:31 | 24.42450 | 9.42326 | 37940 ft | 470 kts | 340° |
| 2026-05-07 15:31 | 24.48873 | 9.40889 | 37905 ft | 471 kts | 340° |
| 2026-05-07 15:32 | 24.55265 | 9.39467 | 37859 ft | 471 kts | 340° |
| 2026-05-07 15:32 | 24.61703 | 9.38037 | 37822 ft | 472 kts | 340° |
| 2026-05-07 15:33 | 24.68121 | 9.36610 | 37807 ft | 472 kts | 340° |
| 2026-05-07 15:33 | 24.74571 | 9.35175 | 37814 ft | 472 kts | 339° |
| 2026-05-07 15:34 | 24.81020 | 9.33738 | 37826 ft | 472 kts | 339° |
| 2026-05-07 15:34 | 24.87428 | 9.32309 | 37832 ft | 472 kts | 339° |
| 2026-05-07 15:35 | 24.93836 | 9.30878 | 37835 ft | 471 kts | 339° |
| 2026-05-07 15:35 | 25.00264 | 9.29442 | 37819 ft | 470 kts | 339° |
| 2026-05-07 15:36 | 25.06686 | 9.28005 | 37812 ft | 470 kts | 339° |
| 2026-05-07 15:36 | 25.13064 | 9.26576 | 37800 ft | 469 kts | 339° |
| 2026-05-07 15:37 | 25.19469 | 9.25140 | 37790 ft | 469 kts | 339° |
| 2026-05-07 15:37 | 25.25840 | 9.23709 | 37783 ft | 468 kts | 339° |
| 2026-05-07 15:38 | 25.32236 | 9.22271 | 37769 ft | 468 kts | 339° |
| 2026-05-07 15:38 | 25.38629 | 9.20833 | 37764 ft | 469 kts | 339° |
| 2026-05-07 15:39 | 25.45025 | 9.19392 | 37754 ft | 469 kts | 339° |
| 2026-05-07 15:39 | 25.51383 | 9.17959 | 37763 ft | 469 kts | 339° |
| 2026-05-07 15:40 | 25.57810 | 9.16508 | 37745 ft | 470 kts | 339° |
| 2026-05-07 15:40 | 25.64188 | 9.15067 | 37743 ft | 470 kts | 339° |
| 2026-05-07 15:41 | 25.70626 | 9.13611 | 37743 ft | 471 kts | 338° |
| 2026-05-07 15:41 | 25.77068 | 9.12152 | 37735 ft | 472 kts | 338° |
| 2026-05-07 15:42 | 25.83477 | 9.10699 | 37748 ft | 473 kts | 338° |
| 2026-05-07 15:42 | 25.89947 | 9.09231 | 37756 ft | 474 kts | 338° |
| 2026-05-07 15:43 | 25.96386 | 9.07768 | 37760 ft | 474 kts | 338° |
| 2026-05-07 15:43 | 26.02874 | 9.06294 | 37768 ft | 475 kts | 338° |
| 2026-05-07 15:44 | 26.09336 | 9.04840 | 37784 ft | 475 kts | 338° |
| 2026-05-07 15:44 | 26.15828 | 9.03373 | 37775 ft | 475 kts | 338° |
| 2026-05-07 15:45 | 26.22329 | 9.01901 | 37915 ft | 478 kts | 338° |
| 2026-05-07 15:45 | 26.25596 | 9.01163 | 38348 ft | 476 kts | 338° |
| 2026-05-07 15:45 | 26.28803 | 9.00439 | 38741 ft | 474 kts | 338° |
| 2026-05-07 15:46 | 26.35265 | 8.98976 | 39405 ft | 473 kts | 338° |
| 2026-05-07 15:46 | 26.38492 | 8.98242 | 39694 ft | 474 kts | 338° |
| 2026-05-07 15:47 | 26.44945 | 8.96777 | 39750 ft | 469 kts | 338° |
| 2026-05-07 15:47 | 26.51361 | 8.95318 | 39755 ft | 471 kts | 338° |
| 2026-05-07 15:48 | 26.57754 | 8.93860 | 39761 ft | 471 kts | 338° |
| 2026-05-07 15:48 | 26.64198 | 8.92392 | 39773 ft | 472 kts | 338° |
| 2026-05-07 15:49 | 26.70641 | 8.90922 | 39784 ft | 472 kts | 337° |
| 2026-05-07 15:49 | 26.77039 | 8.89461 | 39785 ft | 472 kts | 337° |
| 2026-05-07 15:50 | 26.83495 | 8.87984 | 39776 ft | 472 kts | 337° |
| 2026-05-07 15:50 | 26.89908 | 8.86516 | 39773 ft | 472 kts | 337° |
| 2026-05-07 15:51 | 26.96361 | 8.85037 | 39769 ft | 472 kts | 337° |
| 2026-05-07 15:51 | 27.02812 | 8.83560 | 39758 ft | 473 kts | 337° |
| 2026-05-07 15:52 | 27.09245 | 8.82099 | 39761 ft | 472 kts | 337° |
| 2026-05-07 15:52 | 27.15689 | 8.80632 | 39762 ft | 472 kts | 337° |
| 2026-05-07 15:53 | 27.22107 | 8.79169 | 39767 ft | 473 kts | 337° |
| 2026-05-07 15:53 | 27.28568 | 8.77693 | 39766 ft | 473 kts | 337° |
| 2026-05-07 15:54 | 27.33936 | 8.76466 | 39768 ft | 473 kts | 337° |
| 2026-05-07 15:54 | 27.40402 | 8.74986 | 39773 ft | 473 kts | 337° |
| 2026-05-07 15:55 | 27.46818 | 8.73516 | 39776 ft | 473 kts | 337° |
| 2026-05-07 15:55 | 27.53274 | 8.72035 | 39782 ft | 473 kts | 337° |
| 2026-05-07 15:56 | 27.59741 | 8.70550 | 39775 ft | 474 kts | 337° |
| 2026-05-07 15:56 | 27.66223 | 8.69059 | 39776 ft | 474 kts | 337° |
| 2026-05-07 15:57 | 27.72652 | 8.67579 | 39784 ft | 475 kts | 337° |
| 2026-05-07 15:57 | 27.79158 | 8.66079 | 39786 ft | 476 kts | 336° |
| 2026-05-07 15:58 | 27.85658 | 8.64578 | 39803 ft | 477 kts | 337° |
| 2026-05-07 15:58 | 27.92138 | 8.63081 | 39803 ft | 477 kts | 336° |
| 2026-05-07 15:59 | 27.98658 | 8.61573 | 39811 ft | 477 kts | 336° |
| 2026-05-07 15:59 | 28.05135 | 8.60073 | 39809 ft | 477 kts | 336° |
| 2026-05-07 16:00 | 28.11643 | 8.58566 | 39810 ft | 476 kts | 336° |
| 2026-05-07 16:00 | 28.18154 | 8.57074 | 39809 ft | 476 kts | 337° |
| 2026-05-07 16:01 | 28.24614 | 8.55595 | 39810 ft | 476 kts | 337° |
| 2026-05-07 16:01 | 28.31119 | 8.54101 | 39808 ft | 475 kts | 337° |
| 2026-05-07 16:02 | 28.37564 | 8.52618 | 39810 ft | 476 kts | 337° |
| 2026-05-07 16:02 | 28.44088 | 8.51116 | 39813 ft | 476 kts | 337° |
| 2026-05-07 16:03 | 28.50551 | 8.49625 | 39814 ft | 476 kts | 337° |
| 2026-05-07 16:03 | 28.57053 | 8.48124 | 39817 ft | 476 kts | 337° |
| 2026-05-07 16:04 | 28.63552 | 8.46621 | 39820 ft | 476 kts | 337° |
| 2026-05-07 16:04 | 28.70032 | 8.45120 | 39825 ft | 477 kts | 337° |
| 2026-05-07 16:05 | 28.76546 | 8.43610 | 39829 ft | 477 kts | 337° |
| 2026-05-07 16:05 | 28.83054 | 8.42100 | 39829 ft | 477 kts | 338° |
| 2026-05-07 16:06 | 28.89542 | 8.40592 | 39826 ft | 478 kts | 338° |
| 2026-05-07 16:06 | 28.96073 | 8.39072 | 39825 ft | 478 kts | 338° |
| 2026-05-07 16:07 | 29.02612 | 8.37549 | 39826 ft | 479 kts | 338° |
| 2026-05-07 16:07 | 29.09121 | 8.36031 | 39831 ft | 480 kts | 338° |
| 2026-05-07 16:08 | 29.15687 | 8.34497 | 39824 ft | 481 kts | 338° |
| 2026-05-07 16:08 | 29.22209 | 8.32972 | 39843 ft | 481 kts | 338° |
| 2026-05-07 16:09 | 29.28793 | 8.31430 | 39833 ft | 481 kts | 338° |
| 2026-05-07 16:09 | 29.35325 | 8.29899 | 39842 ft | 482 kts | 339° |
| 2026-05-07 16:10 | 29.41903 | 8.28354 | 39841 ft | 482 kts | 339° |
| 2026-05-07 16:10 | 29.48490 | 8.26805 | 39842 ft | 482 kts | 339° |
| 2026-05-07 16:11 | 29.55030 | 8.25266 | 39841 ft | 482 kts | 339° |
| 2026-05-07 16:11 | 29.61608 | 8.23716 | 39848 ft | 482 kts | 339° |
| 2026-05-07 16:12 | 29.68179 | 8.22164 | 39839 ft | 482 kts | 339° |
| 2026-05-07 16:12 | 29.74719 | 8.20618 | 39851 ft | 480 kts | 339° |
| 2026-05-07 16:13 | 29.81273 | 8.19068 | 39837 ft | 480 kts | 339° |
| 2026-05-07 16:13 | 29.87827 | 8.17514 | 39841 ft | 479 kts | 339° |
| 2026-05-07 16:14 | 29.94336 | 8.15970 | 39840 ft | 479 kts | 339° |
| 2026-05-07 16:14 | 30.00866 | 8.14418 | 39837 ft | 478 kts | 339° |
| 2026-05-07 16:15 | 30.07354 | 8.12875 | 39843 ft | 478 kts | 339° |
| 2026-05-07 16:15 | 30.13877 | 8.11348 | 39833 ft | 477 kts | 339° |
| 2026-05-07 16:16 | 30.20392 | 8.09827 | 39834 ft | 477 kts | 339° |
| 2026-05-07 16:16 | 30.26921 | 8.08297 | 39843 ft | 478 kts | 339° |
| 2026-05-07 16:17 | 30.33399 | 8.06777 | 39838 ft | 478 kts | 339° |
| 2026-05-07 16:17 | 30.39913 | 8.05245 | 39842 ft | 477 kts | 339° |
| 2026-05-07 16:18 | 30.46438 | 8.03709 | 39841 ft | 477 kts | 339° |
| 2026-05-07 16:18 | 30.52913 | 8.02183 | 39841 ft | 476 kts | 339° |
| 2026-05-07 16:19 | 30.59410 | 8.00650 | 39831 ft | 475 kts | 339° |
| 2026-05-07 16:19 | 30.65851 | 7.99127 | 39830 ft | 474 kts | 339° |
| 2026-05-07 16:20 | 30.72328 | 7.97594 | 39827 ft | 473 kts | 339° |
| 2026-05-07 16:20 | 30.78782 | 7.96064 | 39826 ft | 473 kts | 339° |
| 2026-05-07 16:21 | 30.85232 | 7.94532 | 39826 ft | 472 kts | 339° |
| 2026-05-07 16:21 | 30.91632 | 7.93011 | 39824 ft | 472 kts | 339° |
| 2026-05-07 16:22 | 30.98079 | 7.91476 | 39827 ft | 472 kts | 339° |
| 2026-05-07 16:22 | 31.04535 | 7.89938 | 39831 ft | 472 kts | 339° |
| 2026-05-07 16:23 | 31.10944 | 7.88408 | 39823 ft | 472 kts | 339° |
| 2026-05-07 16:23 | 31.17406 | 7.86864 | 39822 ft | 472 kts | 339° |
| 2026-05-07 16:24 | 31.23813 | 7.85330 | 39824 ft | 473 kts | 339° |
| 2026-05-07 16:24 | 31.30263 | 7.83784 | 39822 ft | 473 kts | 339° |
| 2026-05-07 16:25 | 31.36715 | 7.82236 | 39820 ft | 473 kts | 339° |
| 2026-05-07 16:25 | 31.43171 | 7.80685 | 39820 ft | 473 kts | 339° |
| 2026-05-07 16:26 | 31.49577 | 7.79143 | 39809 ft | 473 kts | 339° |
| 2026-05-07 16:26 | 31.56032 | 7.77588 | 39814 ft | 473 kts | 339° |
| 2026-05-07 16:27 | 31.62449 | 7.76038 | 39815 ft | 473 kts | 339° |
| 2026-05-07 16:27 | 31.68917 | 7.74476 | 39815 ft | 473 kts | 339° |
| 2026-05-07 16:28 | 31.75356 | 7.72917 | 39810 ft | 473 kts | 339° |
| 2026-05-07 16:28 | 31.81795 | 7.71380 | 39811 ft | 474 kts | 339° |
| 2026-05-07 16:29 | 31.88270 | 7.69855 | 39806 ft | 474 kts | 339° |
| 2026-05-07 16:29 | 31.94744 | 7.68324 | 39808 ft | 474 kts | 339° |
| 2026-05-07 16:30 | 32.01175 | 7.66798 | 39803 ft | 474 kts | 339° |
| 2026-05-07 16:30 | 32.07654 | 7.65259 | 39806 ft | 474 kts | 339° |
| 2026-05-07 16:31 | 32.14132 | 7.63716 | 39805 ft | 474 kts | 339° |
| 2026-05-07 16:31 | 32.20574 | 7.62181 | 39806 ft | 474 kts | 339° |
| 2026-05-07 16:32 | 32.27048 | 7.60636 | 39801 ft | 474 kts | 339° |
| 2026-05-07 16:32 | 32.33526 | 7.59082 | 39799 ft | 483 kts | 339° |
| 2026-05-07 16:33 | 32.40228 | 7.57468 | 39807 ft | 498 kts | 339° |
| 2026-05-07 16:33 | 32.46975 | 7.55863 | 39800 ft | 491 kts | 339° |
| 2026-05-07 16:34 | 32.53718 | 7.54245 | 39798 ft | 494 kts | 339° |
| 2026-05-07 16:34 | 32.60468 | 7.52622 | 39798 ft | 494 kts | 339° |
| 2026-05-07 16:35 | 32.67171 | 7.51006 | 39795 ft | 495 kts | 339° |
| 2026-05-07 16:35 | 32.73941 | 7.49372 | 39792 ft | 495 kts | 339° |
| 2026-05-07 16:36 | 32.80713 | 7.47736 | 39794 ft | 496 kts | 339° |
| 2026-05-07 16:36 | 32.87450 | 7.46106 | 39792 ft | 497 kts | 339° |
| 2026-05-07 16:37 | 32.94250 | 7.44458 | 39788 ft | 497 kts | 339° |
| 2026-05-07 16:37 | 33.00995 | 7.42821 | 39791 ft | 497 kts | 339° |
| 2026-05-07 16:38 | 33.07782 | 7.41170 | 39786 ft | 497 kts | 339° |
| 2026-05-07 16:38 | 33.14566 | 7.39518 | 39790 ft | 498 kts | 339° |
| 2026-05-07 16:39 | 33.21367 | 7.37859 | 39790 ft | 498 kts | 339° |
| 2026-05-07 16:39 | 33.28124 | 7.36208 | 39786 ft | 499 kts | 339° |
| 2026-05-07 16:40 | 33.34950 | 7.34538 | 39789 ft | 499 kts | 339° |
| 2026-05-07 16:40 | 33.41719 | 7.32879 | 39786 ft | 500 kts | 339° |
| 2026-05-07 16:41 | 33.48537 | 7.31205 | 39797 ft | 500 kts | 338° |
| 2026-05-07 16:41 | 33.54205 | 7.29814 | 39787 ft | 499 kts | 338° |
| 2026-05-07 16:42 | 33.61029 | 7.28132 | 39788 ft | 499 kts | 338° |
| 2026-05-07 16:42 | 33.67815 | 7.26458 | 39792 ft | 500 kts | 338° |
| 2026-05-07 16:43 | 33.74612 | 7.24779 | 39790 ft | 501 kts | 338° |
| 2026-05-07 16:43 | 33.81459 | 7.23086 | 39790 ft | 501 kts | 338° |
| 2026-05-07 16:44 | 33.88307 | 7.21388 | 39782 ft | 501 kts | 338° |
| 2026-05-07 16:44 | 33.95107 | 7.19701 | 39789 ft | 501 kts | 338° |
| 2026-05-07 16:45 | 34.01970 | 7.17994 | 39791 ft | 502 kts | 338° |
| 2026-05-07 16:45 | 34.08786 | 7.16297 | 39791 ft | 503 kts | 338° |
| 2026-05-07 16:46 | 34.15640 | 7.14588 | 39792 ft | 502 kts | 338° |
| 2026-05-07 16:46 | 34.22495 | 7.12876 | 39790 ft | 502 kts | 338° |
| 2026-05-07 16:47 | 34.29312 | 7.11169 | 39793 ft | 503 kts | 338° |
| 2026-05-07 16:47 | 34.36170 | 7.09451 | 39795 ft | 502 kts | 338° |
| 2026-05-07 16:48 | 34.43025 | 7.07729 | 39794 ft | 502 kts | 338° |
| 2026-05-07 16:48 | 34.49828 | 7.06018 | 39801 ft | 501 kts | 338° |
| 2026-05-07 16:49 | 34.56675 | 7.04292 | 39812 ft | 502 kts | 337° |
| 2026-05-07 16:49 | 34.63512 | 7.02567 | 39816 ft | 501 kts | 337° |
| 2026-05-07 16:50 | 34.70351 | 7.00838 | 39809 ft | 502 kts | 337° |
| 2026-05-07 16:50 | 34.77172 | 6.99112 | 39828 ft | 502 kts | 337° |
| 2026-05-07 16:51 | 34.84013 | 6.97390 | 39834 ft | 504 kts | 338° |
| 2026-05-07 16:51 | 34.90905 | 6.95692 | 39838 ft | 504 kts | 338° |
| 2026-05-07 16:52 | 34.97739 | 6.94005 | 39847 ft | 504 kts | 338° |
| 2026-05-07 16:52 | 35.04621 | 6.92300 | 39852 ft | 503 kts | 338° |
| 2026-05-07 16:53 | 35.11499 | 6.90590 | 39850 ft | 504 kts | 338° |
| 2026-05-07 16:53 | 35.18329 | 6.88890 | 39851 ft | 503 kts | 337° |
| 2026-05-07 16:54 | 35.25203 | 6.87175 | 39848 ft | 504 kts | 337° |
| 2026-05-07 16:54 | 35.32090 | 6.85454 | 39849 ft | 504 kts | 337° |
| 2026-05-07 16:55 | 35.38934 | 6.83739 | 39843 ft | 504 kts | 337° |
| 2026-05-07 16:55 | 35.45829 | 6.82013 | 39837 ft | 504 kts | 337° |
| 2026-05-07 16:56 | 35.52690 | 6.80289 | 39837 ft | 505 kts | 337° |
| 2026-05-07 16:56 | 35.63032 | 6.77687 | 39828 ft | 505 kts | 337° |
| 2026-05-07 16:57 | 35.69881 | 6.75959 | 39830 ft | 504 kts | 338° |
| 2026-05-07 16:57 | 35.76777 | 6.74217 | 39841 ft | 504 kts | 338° |
| 2026-05-07 16:58 | 35.83617 | 6.72486 | 39834 ft | 503 kts | 338° |
| 2026-05-07 16:58 | 35.90505 | 6.70740 | 39827 ft | 503 kts | 338° |
| 2026-05-07 16:59 | 35.97334 | 6.69005 | 39831 ft | 502 kts | 338° |
| 2026-05-07 16:59 | 36.04201 | 6.67257 | 39839 ft | 502 kts | 338° |
| 2026-05-07 17:00 | 36.11028 | 6.65518 | 39854 ft | 502 kts | 338° |
| 2026-05-07 17:00 | 36.17875 | 6.63769 | 39855 ft | 502 kts | 338° |
| 2026-05-07 17:01 | 36.24719 | 6.62019 | 39860 ft | 500 kts | 338° |
| 2026-05-07 17:01 | 36.31559 | 6.60298 | 39862 ft | 503 kts | 340° |
| 2026-05-07 17:02 | 36.38499 | 6.59038 | 39858 ft | 506 kts | 341° |
| 2026-05-07 17:02 | 36.45477 | 6.57822 | 39846 ft | 505 kts | 341° |
| 2026-05-07 17:03 | 36.52392 | 6.56554 | 39842 ft | 503 kts | 340° |
| 2026-05-07 17:03 | 36.59328 | 6.55259 | 39841 ft | 504 kts | 340° |
| 2026-05-07 17:04 | 36.66280 | 6.53958 | 39827 ft | 504 kts | 340° |
| 2026-05-07 17:04 | 36.73191 | 6.52665 | 39826 ft | 504 kts | 340° |
| 2026-05-07 17:05 | 36.80150 | 6.51359 | 39827 ft | 505 kts | 340° |
| 2026-05-07 17:05 | 36.87080 | 6.50057 | 39833 ft | 505 kts | 340° |
| 2026-05-07 17:06 | 36.94045 | 6.48746 | 39831 ft | 506 kts | 341° |
| 2026-05-07 17:06 | 37.01008 | 6.47432 | 39836 ft | 506 kts | 341° |
| 2026-05-07 17:07 | 37.07946 | 6.46122 | 39829 ft | 507 kts | 341° |
| 2026-05-07 17:07 | 37.14939 | 6.44798 | 39834 ft | 507 kts | 341° |
| 2026-05-07 17:08 | 37.21942 | 6.43470 | 39839 ft | 509 kts | 341° |
| 2026-05-07 17:08 | 37.28953 | 6.42138 | 39840 ft | 509 kts | 341° |
| 2026-05-07 17:09 | 37.35917 | 6.40812 | 39847 ft | 510 kts | 342° |
| 2026-05-07 17:09 | 37.42948 | 6.39472 | 39848 ft | 510 kts | 342° |
| 2026-05-07 17:10 | 37.49992 | 6.38126 | 39846 ft | 511 kts | 342° |
| 2026-05-07 17:10 | 37.56997 | 6.36785 | 39846 ft | 512 kts | 342° |
| 2026-05-07 17:11 | 37.64062 | 6.35429 | 39850 ft | 513 kts | 342° |
| 2026-05-07 17:11 | 37.71129 | 6.34072 | 39851 ft | 514 kts | 342° |
| 2026-05-07 17:12 | 37.78159 | 6.32719 | 39863 ft | 514 kts | 343° |
| 2026-05-07 17:12 | 37.85240 | 6.31352 | 39860 ft | 514 kts | 343° |
| 2026-05-07 17:13 | 37.92337 | 6.29980 | 39870 ft | 515 kts | 343° |
| 2026-05-07 17:13 | 37.99393 | 6.28614 | 39882 ft | 516 kts | 343° |
| 2026-05-07 17:14 | 38.06509 | 6.27233 | 39872 ft | 516 kts | 343° |
| 2026-05-07 17:14 | 38.13634 | 6.25848 | 39876 ft | 518 kts | 343° |
| 2026-05-07 17:15 | 38.20719 | 6.24468 | 39881 ft | 518 kts | 344° |
| 2026-05-07 17:15 | 38.27869 | 6.23072 | 39883 ft | 519 kts | 344° |
| 2026-05-07 17:16 | 38.35006 | 6.21677 | 39881 ft | 519 kts | 344° |
| 2026-05-07 17:16 | 38.42135 | 6.20280 | 39885 ft | 519 kts | 344° |
| 2026-05-07 17:17 | 38.49300 | 6.18873 | 39888 ft | 520 kts | 344° |
| 2026-05-07 17:17 | 38.56502 | 6.17452 | 39889 ft | 533 kts | 343° |
| 2026-05-07 17:18 | 38.63845 | 6.16006 | 39897 ft | 532 kts | 343° |
| 2026-05-07 17:18 | 38.71130 | 6.14569 | 39890 ft | 532 kts | 343° |
| 2026-05-07 17:19 | 38.78458 | 6.13119 | 39900 ft | 533 kts | 343° |
| 2026-05-07 17:19 | 38.85807 | 6.11662 | 39901 ft | 533 kts | 343° |
| 2026-05-07 17:20 | 38.93106 | 6.10211 | 39907 ft | 533 kts | 343° |
| 2026-05-07 17:20 | 39.00450 | 6.08749 | 39908 ft | 533 kts | 343° |
| 2026-05-07 17:21 | 39.07775 | 6.07432 | 39907 ft | 535 kts | 345° |
| 2026-05-07 17:21 | 39.15173 | 6.06168 | 39910 ft | 535 kts | 345° |
| 2026-05-07 17:22 | 39.22564 | 6.04879 | 39915 ft | 535 kts | 345° |
| 2026-05-07 17:22 | 39.29909 | 6.03586 | 39915 ft | 535 kts | 345° |
| 2026-05-07 17:23 | 39.37314 | 6.02278 | 39916 ft | 535 kts | 345° |
| 2026-05-07 17:23 | 39.44654 | 6.00979 | 39917 ft | 536 kts | 345° |
| 2026-05-07 17:24 | 39.52055 | 5.99667 | 39919 ft | 536 kts | 345° |
| 2026-05-07 17:24 | 39.59466 | 5.98350 | 39920 ft | 536 kts | 345° |
| 2026-05-07 17:25 | 39.66829 | 5.97039 | 39924 ft | 536 kts | 345° |
| 2026-05-07 17:25 | 39.74232 | 5.95718 | 39920 ft | 536 kts | 345° |
| 2026-05-07 17:26 | 39.81627 | 5.94396 | 39930 ft | 536 kts | 345° |
| 2026-05-07 17:26 | 39.89005 | 5.93073 | 39933 ft | 536 kts | 345° |
| 2026-05-07 17:27 | 39.96368 | 5.91751 | 39922 ft | 536 kts | 345° |
| 2026-05-07 17:27 | 40.03768 | 5.90419 | 39927 ft | 536 kts | 345° |
| 2026-05-07 17:28 | 40.11164 | 5.89085 | 39929 ft | 536 kts | 345° |
| 2026-05-07 17:28 | 40.17316 | 5.87973 | 39931 ft | 535 kts | 345° |
| 2026-05-07 17:29 | 40.24675 | 5.86640 | 39932 ft | 535 kts | 345° |
| 2026-05-07 17:29 | 40.32069 | 5.85298 | 39930 ft | 535 kts | 346° |
| 2026-05-07 17:30 | 40.39458 | 5.83954 | 39939 ft | 535 kts | 346° |
| 2026-05-07 17:30 | 40.46792 | 5.82631 | 39938 ft | 535 kts | 346° |
| 2026-05-07 17:31 | 40.54217 | 5.81474 | 39941 ft | 536 kts | 347° |
| 2026-05-07 17:31 | 40.61599 | 5.80336 | 39946 ft | 535 kts | 347° |
| 2026-05-07 17:32 | 40.69014 | 5.79168 | 39944 ft | 535 kts | 347° |
| 2026-05-07 17:32 | 40.76375 | 5.78000 | 39946 ft | 536 kts | 347° |
| 2026-05-07 17:33 | 40.83794 | 5.76820 | 39947 ft | 536 kts | 347° |
| 2026-05-07 17:33 | 40.91166 | 5.75645 | 39954 ft | 536 kts | 347° |
| 2026-05-07 17:34 | 40.98576 | 5.74461 | 39953 ft | 536 kts | 347° |
| 2026-05-07 17:34 | 41.05988 | 5.73275 | 39960 ft | 535 kts | 347° |
| 2026-05-07 17:35 | 41.13349 | 5.72094 | 39958 ft | 535 kts | 347° |
| 2026-05-07 17:35 | 41.20752 | 5.70903 | 39956 ft | 535 kts | 347° |
| 2026-05-07 17:36 | 41.28120 | 5.69715 | 39960 ft | 535 kts | 347° |
| 2026-05-07 17:36 | 41.35526 | 5.68519 | 39962 ft | 535 kts | 347° |
| 2026-05-07 17:37 | 41.42926 | 5.67321 | 39960 ft | 535 kts | 347° |
| 2026-05-07 17:37 | 41.50337 | 5.66118 | 39964 ft | 536 kts | 347° |
| 2026-05-07 17:38 | 41.57704 | 5.64919 | 39962 ft | 535 kts | 347° |
| 2026-05-07 17:38 | 41.65111 | 5.63712 | 39971 ft | 535 kts | 347° |
| 2026-05-07 17:39 | 41.72476 | 5.62508 | 39962 ft | 535 kts | 347° |
| 2026-05-07 17:39 | 41.79882 | 5.61288 | 39968 ft | 535 kts | 347° |
| 2026-05-07 17:40 | 41.87207 | 5.59889 | 39968 ft | 534 kts | 346° |
| 2026-05-07 17:40 | 41.94581 | 5.58446 | 39965 ft | 534 kts | 346° |
| 2026-05-07 17:41 | 42.01902 | 5.57035 | 39968 ft | 533 kts | 346° |
| 2026-05-07 17:41 | 42.09257 | 5.55623 | 39966 ft | 533 kts | 346° |
| 2026-05-07 17:42 | 42.16594 | 5.54210 | 39964 ft | 532 kts | 347° |
| 2026-05-07 17:42 | 42.23926 | 5.52795 | 39964 ft | 532 kts | 347° |
| 2026-05-07 17:43 | 42.31238 | 5.51380 | 39966 ft | 532 kts | 347° |
| 2026-05-07 17:43 | 42.38575 | 5.49957 | 39961 ft | 532 kts | 347° |
| 2026-05-07 17:44 | 42.45939 | 5.48526 | 39964 ft | 531 kts | 347° |
| 2026-05-07 17:44 | 42.53223 | 5.47107 | 39963 ft | 531 kts | 347° |
| 2026-05-07 17:45 | 42.60557 | 5.45674 | 39967 ft | 531 kts | 347° |
| 2026-05-07 17:45 | 42.67831 | 5.44250 | 39960 ft | 531 kts | 347° |
| 2026-05-07 17:46 | 42.75164 | 5.42811 | 39961 ft | 531 kts | 347° |
| 2026-05-07 17:46 | 42.82498 | 5.41369 | 39970 ft | 530 kts | 347° |
| 2026-05-07 17:47 | 42.89762 | 5.39937 | 39958 ft | 530 kts | 347° |
| 2026-05-07 17:47 | 42.97094 | 5.38487 | 39960 ft | 531 kts | 347° |
| 2026-05-07 17:48 | 43.04402 | 5.37040 | 39963 ft | 530 kts | 347° |
| 2026-05-07 17:48 | 43.11665 | 5.35597 | 39967 ft | 529 kts | 347° |
| 2026-05-07 17:49 | 43.18966 | 5.34144 | 39966 ft | 529 kts | 347° |
| 2026-05-07 17:49 | 43.26340 | 5.33160 | 39969 ft | 534 kts | 354° |
| 2026-05-07 17:50 | 43.33725 | 5.32780 | 39968 ft | 531 kts | 350° |
| 2026-05-07 17:50 | 43.40962 | 5.31012 | 39968 ft | 524 kts | 340° |
| 2026-05-07 17:51 | 43.47846 | 5.27975 | 39968 ft | 521 kts | 337° |
| 2026-05-07 17:51 | 43.54748 | 5.24871 | 39966 ft | 520 kts | 337° |
| 2026-05-07 17:52 | 43.61634 | 5.21740 | 39968 ft | 520 kts | 336° |
| 2026-05-07 17:52 | 43.68479 | 5.18601 | 39965 ft | 520 kts | 336° |
| 2026-05-07 17:53 | 43.75354 | 5.15438 | 39964 ft | 520 kts | 336° |
| 2026-05-07 17:53 | 43.82232 | 5.12266 | 39961 ft | 519 kts | 337° |
| 2026-05-07 17:54 | 43.89057 | 5.09111 | 39962 ft | 519 kts | 337° |
| 2026-05-07 17:54 | 43.95931 | 5.05925 | 39963 ft | 519 kts | 337° |
| 2026-05-07 17:55 | 44.02788 | 5.02740 | 39959 ft | 518 kts | 337° |
| 2026-05-07 17:55 | 44.09629 | 4.99555 | 39940 ft | 518 kts | 337° |
| 2026-05-07 17:56 | 44.16447 | 4.96372 | 39942 ft | 518 kts | 337° |
| 2026-05-07 17:56 | 44.23287 | 4.93171 | 39940 ft | 518 kts | 337° |
| 2026-05-07 17:57 | 44.28923 | 4.90528 | 39937 ft | 517 kts | 337° |
| 2026-05-07 17:57 | 44.36919 | 4.86768 | 39942 ft | 517 kts | 337° |
| 2026-05-07 17:58 | 44.43707 | 4.83569 | 39940 ft | 517 kts | 337° |
| 2026-05-07 17:58 | 44.50549 | 4.80335 | 39945 ft | 517 kts | 337° |
| 2026-05-07 17:59 | 44.57466 | 4.77600 | 39952 ft | 522 kts | 345° |
| 2026-05-07 17:59 | 44.64676 | 4.76007 | 39955 ft | 523 kts | 347° |
| 2026-05-07 18:00 | 44.71824 | 4.74392 | 39961 ft | 523 kts | 347° |
| 2026-05-07 18:00 | 44.79029 | 4.72778 | 39959 ft | 522 kts | 347° |
| 2026-05-07 18:01 | 44.86221 | 4.71175 | 39966 ft | 520 kts | 347° |
| 2026-05-07 18:01 | 44.89722 | 4.70397 | 39960 ft | 507 kts | 347° |
| 2026-05-07 18:01 | 44.93173 | 4.69631 | 39965 ft | 497 kts | 347° |
| 2026-05-07 18:02 | 45.03412 | 4.67331 | 39968 ft | 499 kts | 347° |
| 2026-05-07 18:03 | 45.10293 | 4.65783 | 39971 ft | 499 kts | 347° |
| 2026-05-07 18:03 | 45.17120 | 4.64246 | 39978 ft | 498 kts | 347° |
| 2026-05-07 18:04 | 45.23988 | 4.62689 | 39981 ft | 498 kts | 347° |
| 2026-05-07 18:04 | 45.30842 | 4.61121 | 39985 ft | 498 kts | 347° |
| 2026-05-07 18:05 | 45.37665 | 4.59557 | 39985 ft | 498 kts | 347° |
| 2026-05-07 18:05 | 45.44527 | 4.57982 | 39993 ft | 498 kts | 347° |
| 2026-05-07 18:06 | 45.51336 | 4.56416 | 39997 ft | 497 kts | 347° |
| 2026-05-07 18:06 | 45.58198 | 4.54833 | 39986 ft | 497 kts | 347° |
| 2026-05-07 18:07 | 45.64988 | 4.53263 | 39997 ft | 497 kts | 347° |
| 2026-05-07 18:07 | 45.71825 | 4.51678 | 39988 ft | 497 kts | 347° |
| 2026-05-07 18:08 | 45.78629 | 4.50097 | 39988 ft | 497 kts | 347° |
| 2026-05-07 18:08 | 45.85469 | 4.48503 | 39993 ft | 497 kts | 347° |
| 2026-05-07 18:09 | 45.92312 | 4.46905 | 39992 ft | 497 kts | 347° |
| 2026-05-07 18:09 | 45.99148 | 4.45305 | 39998 ft | 497 kts | 347° |
| 2026-05-07 18:10 | 46.05944 | 4.43710 | 39991 ft | 497 kts | 347° |
| 2026-05-07 18:10 | 46.12766 | 4.42105 | 40001 ft | 497 kts | 347° |
| 2026-05-07 18:11 | 46.19562 | 4.40502 | 39997 ft | 496 kts | 347° |
| 2026-05-07 18:11 | 46.26391 | 4.38887 | 39997 ft | 496 kts | 347° |
| 2026-05-07 18:12 | 46.33123 | 4.36729 | 39995 ft | 493 kts | 342° |
| 2026-05-07 18:12 | 46.39752 | 4.34418 | 39992 ft | 493 kts | 343° |
| 2026-05-07 18:13 | 46.46442 | 4.32085 | 39992 ft | 493 kts | 343° |
| 2026-05-07 18:13 | 46.53085 | 4.29750 | 39990 ft | 493 kts | 343° |
| 2026-05-07 18:14 | 46.59756 | 4.27396 | 40000 ft | 493 kts | 342° |
| 2026-05-07 18:14 | 46.65320 | 4.25428 | 39994 ft | 493 kts | 343° |
| 2026-05-07 18:15 | 46.73073 | 4.22679 | 39996 ft | 493 kts | 343° |
| 2026-05-07 18:15 | 46.78637 | 4.20701 | 40003 ft | 493 kts | 343° |
| 2026-05-07 18:16 | 46.85315 | 4.18321 | 40000 ft | 493 kts | 343° |
| 2026-05-07 18:16 | 46.91987 | 4.15938 | 40003 ft | 493 kts | 343° |
| 2026-05-07 18:17 | 46.98574 | 4.13579 | 40010 ft | 493 kts | 343° |
| 2026-05-07 18:17 | 47.05253 | 4.11142 | 40007 ft | 492 kts | 340° |
| 2026-05-07 18:18 | 47.11605 | 4.07713 | 40011 ft | 488 kts | 334° |
| 2026-05-07 18:18 | 47.17922 | 4.03998 | 40018 ft | 489 kts | 335° |
| 2026-05-07 18:19 | 47.24264 | 4.00274 | 40021 ft | 489 kts | 335° |
| 2026-05-07 18:19 | 47.30539 | 3.96556 | 40010 ft | 489 kts | 335° |
| 2026-05-07 18:20 | 47.36861 | 3.92793 | 40009 ft | 489 kts | 335° |
| 2026-05-07 18:20 | 47.43173 | 3.89026 | 40013 ft | 490 kts | 335° |
| 2026-05-07 18:21 | 47.49473 | 3.85257 | 40014 ft | 490 kts | 335° |
| 2026-05-07 18:21 | 47.55808 | 3.81457 | 40015 ft | 490 kts | 335° |
| 2026-05-07 18:22 | 47.62135 | 3.77654 | 40017 ft | 490 kts | 335° |
| 2026-05-07 18:22 | 47.68435 | 3.73859 | 40018 ft | 490 kts | 335° |
| 2026-05-07 18:23 | 47.74770 | 3.70032 | 40017 ft | 490 kts | 335° |
| 2026-05-07 18:23 | 47.81051 | 3.66227 | 40022 ft | 490 kts | 335° |
| 2026-05-07 18:24 | 47.87377 | 3.62386 | 40020 ft | 490 kts | 335° |
| 2026-05-07 18:24 | 47.93705 | 3.58532 | 40021 ft | 490 kts | 335° |
| 2026-05-07 18:25 | 47.99984 | 3.54695 | 40021 ft | 490 kts | 335° |
| 2026-05-07 18:25 | 48.06264 | 3.50834 | 40017 ft | 490 kts | 334° |
| 2026-05-07 18:26 | 48.12580 | 3.46940 | 40017 ft | 490 kts | 335° |
| 2026-05-07 18:26 | 48.18876 | 3.43050 | 40024 ft | 490 kts | 334° |
| 2026-05-07 18:27 | 48.25178 | 3.39147 | 40023 ft | 490 kts | 334° |
| 2026-05-07 18:27 | 48.31468 | 3.35240 | 40025 ft | 484 kts | 334° |
| 2026-05-07 18:27 | 48.34512 | 3.33350 | 40024 ft | 471 kts | 334° |
| 2026-05-07 18:28 | 48.37510 | 3.31486 | 40025 ft | 459 kts | 334° |
| 2026-05-07 18:28 | 48.43382 | 3.27805 | 40031 ft | 459 kts | 334° |
| 2026-05-07 18:29 | 48.49269 | 3.24037 | 40027 ft | 462 kts | 334° |
| 2026-05-07 18:29 | 48.55198 | 3.20240 | 40025 ft | 462 kts | 334° |
| 2026-05-07 18:30 | 48.61121 | 3.16444 | 40026 ft | 462 kts | 334° |
| 2026-05-07 18:30 | 48.67033 | 3.12647 | 40028 ft | 461 kts | 334° |
| 2026-05-07 18:31 | 48.72904 | 3.08867 | 40025 ft | 461 kts | 334° |
| 2026-05-07 18:31 | 48.78822 | 3.05047 | 40025 ft | 461 kts | 334° |
| 2026-05-07 18:32 | 48.84665 | 3.01148 | 40027 ft | 459 kts | 330° |
| 2026-05-07 18:32 | 48.88380 | 2.97947 | 40034 ft | 457 kts | 327° |
| 2026-05-07 18:33 | 48.91140 | 2.95526 | 40034 ft | 457 kts | 327° |
| 2026-05-07 18:33 | 48.96640 | 2.90746 | 40036 ft | 458 kts | 327° |
| 2026-05-07 18:34 | 49.02090 | 2.85983 | 40045 ft | 446 kts | 327° |
| 2026-05-07 18:34 | 49.07416 | 2.81303 | 40047 ft | 439 kts | 327° |
| 2026-05-07 18:35 | 49.12684 | 2.76654 | 40049 ft | 442 kts | 327° |
| 2026-05-07 18:35 | 49.18018 | 2.71939 | 40048 ft | 443 kts | 327° |
| 2026-05-07 18:36 | 49.23347 | 2.67219 | 40050 ft | 443 kts | 327° |
| 2026-05-07 18:36 | 49.28682 | 2.62481 | 40044 ft | 442 kts | 327° |
| 2026-05-07 18:37 | 49.33979 | 2.57765 | 40038 ft | 441 kts | 327° |
| 2026-05-07 18:37 | 49.39283 | 2.53029 | 40031 ft | 440 kts | 327° |
| 2026-05-07 18:38 | 49.44551 | 2.48315 | 40025 ft | 440 kts | 327° |
| 2026-05-07 18:38 | 49.49842 | 2.43568 | 40024 ft | 439 kts | 327° |
| 2026-05-07 18:39 | 49.55138 | 2.38922 | 40051 ft | 439 kts | 328° |
| 2026-05-07 18:39 | 49.60522 | 2.34428 | 40050 ft | 438 kts | 328° |
| 2026-05-07 18:40 | 49.65852 | 2.29939 | 40049 ft | 438 kts | 328° |
| 2026-05-07 18:40 | 49.71209 | 2.25389 | 40049 ft | 438 kts | 328° |
| 2026-05-07 18:41 | 49.76523 | 2.20860 | 40049 ft | 438 kts | 328° |
| 2026-05-07 18:41 | 49.81880 | 2.16284 | 40049 ft | 438 kts | 328° |
| 2026-05-07 18:42 | 49.87193 | 2.11734 | 40047 ft | 439 kts | 328° |
| 2026-05-07 18:42 | 49.92642 | 2.07052 | 40053 ft | 455 kts | 328° |
| 2026-05-07 18:43 | 49.98237 | 2.02233 | 40054 ft | 470 kts | 328° |
| 2026-05-07 18:43 | 50.04080 | 1.97189 | 40054 ft | 486 kts | 328° |
| 2026-05-07 18:44 | 50.10039 | 1.92034 | 40051 ft | 490 kts | 328° |
| 2026-05-07 18:44 | 50.15873 | 1.86671 | 39884 ft | 482 kts | 322° |
| 2026-05-07 18:44 | 50.18521 | 1.83509 | 39644 ft | 476 kts | 317° |
| 2026-05-07 18:45 | 50.20966 | 1.80041 | 39113 ft | 475 kts | 313° |
| 2026-05-07 18:45 | 50.23331 | 1.76392 | 38270 ft | 479 kts | 313° |
| 2026-05-07 18:45 | 50.25712 | 1.72777 | 37389 ft | 481 kts | 313° |
| 2026-05-07 18:45 | 50.28117 | 1.69130 | 36427 ft | 484 kts | 313° |
| 2026-05-07 18:46 | 50.30532 | 1.65454 | 35652 ft | 484 kts | 313° |
| 2026-05-07 18:46 | 50.32936 | 1.61785 | 34831 ft | 483 kts | 313° |
| 2026-05-07 18:46 | 50.35350 | 1.58086 | 34034 ft | 482 kts | 313° |
| 2026-05-07 18:46 | 50.37730 | 1.54433 | 33464 ft | 474 kts | 313° |
| 2026-05-07 18:47 | 50.40042 | 1.50879 | 32921 ft | 466 kts | 313° |
| 2026-05-07 18:47 | 50.42346 | 1.47331 | 32370 ft | 459 kts | 313° |
| 2026-05-07 18:47 | 50.44609 | 1.43840 | 31820 ft | 453 kts | 313° |
| 2026-05-07 18:47 | 50.46813 | 1.40434 | 31281 ft | 448 kts | 313° |
| 2026-05-07 18:48 | 50.49040 | 1.36989 | 30726 ft | 443 kts | 313° |
| 2026-05-07 18:48 | 50.51200 | 1.33551 | 30202 ft | 438 kts | 311° |
| 2026-05-07 18:48 | 50.53255 | 1.30052 | 29605 ft | 433 kts | 310° |
| 2026-05-07 18:48 | 50.55239 | 1.26616 | 29090 ft | 427 kts | 310° |
| 2026-05-07 18:49 | 50.57227 | 1.23181 | 28573 ft | 421 kts | 310° |
| 2026-05-07 18:49 | 50.59216 | 1.19829 | 28044 ft | 416 kts | 312° |
| 2026-05-07 18:49 | 50.61254 | 1.16606 | 27526 ft | 412 kts | 313° |
| 2026-05-07 18:49 | 50.63282 | 1.13455 | 27020 ft | 407 kts | 313° |
| 2026-05-07 18:50 | 50.65285 | 1.10335 | 26508 ft | 403 kts | 313° |
| 2026-05-07 18:50 | 50.67263 | 1.07230 | 26012 ft | 399 kts | 313° |
| 2026-05-07 18:50 | 50.69216 | 1.04146 | 25511 ft | 395 kts | 312° |
| 2026-05-07 18:50 | 50.71131 | 1.01111 | 25017 ft | 392 kts | 312° |
| 2026-05-07 18:51 | 50.73054 | 0.98055 | 24512 ft | 389 kts | 312° |
| 2026-05-07 18:51 | 50.74957 | 0.95026 | 24026 ft | 387 kts | 312° |
| 2026-05-07 18:51 | 50.76831 | 0.92041 | 23501 ft | 385 kts | 312° |
| 2026-05-07 18:51 | 50.78713 | 0.89039 | 22993 ft | 381 kts | 312° |
| 2026-05-07 18:52 | 50.80569 | 0.86076 | 22519 ft | 377 kts | 312° |
| 2026-05-07 18:52 | 50.82409 | 0.83135 | 22013 ft | 373 kts | 312° |
| 2026-05-07 18:52 | 50.84229 | 0.80224 | 21517 ft | 370 kts | 312° |
| 2026-05-07 18:52 | 50.86004 | 0.77379 | 21052 ft | 366 kts | 312° |
| 2026-05-07 18:53 | 50.87797 | 0.74503 | 20545 ft | 364 kts | 312° |
| 2026-05-07 18:53 | 50.89569 | 0.71656 | 20080 ft | 361 kts | 312° |
| 2026-05-07 18:53 | 50.91334 | 0.68818 | 19605 ft | 359 kts | 312° |
| 2026-05-07 18:53 | 50.93064 | 0.66033 | 19126 ft | 357 kts | 313° |
| 2026-05-07 18:54 | 50.94808 | 0.63222 | 18647 ft | 355 kts | 313° |
| 2026-05-07 18:54 | 50.96519 | 0.60461 | 18224 ft | 357 kts | 313° |
| 2026-05-07 18:54 | 50.98316 | 0.57555 | 17877 ft | 368 kts | 313° |
| 2026-05-07 18:54 | 51.00118 | 0.54641 | 17777 ft | 370 kts | 313° |
| 2026-05-07 18:55 | 51.01902 | 0.51755 | 17601 ft | 367 kts | 313° |
| 2026-05-07 18:55 | 51.03613 | 0.48757 | 17113 ft | 364 kts | 306° |
| 2026-05-07 18:55 | 51.05039 | 0.45441 | 16522 ft | 361 kts | 301° |
| 2026-05-07 18:55 | 51.06385 | 0.42127 | 15930 ft | 359 kts | 301° |
| 2026-05-07 18:56 | 51.07711 | 0.38864 | 15364 ft | 357 kts | 301° |
| 2026-05-07 18:56 | 51.09057 | 0.35554 | 14862 ft | 356 kts | 301° |
| 2026-05-07 18:56 | 51.10400 | 0.32245 | 14338 ft | 355 kts | 301° |
| 2026-05-07 18:56 | 51.11437 | 0.29691 | 13931 ft | 354 kts | 301° |
| 2026-05-07 18:57 | 51.12711 | 0.26598 | 13431 ft | 352 kts | 305° |
| 2026-05-07 18:57 | 51.14444 | 0.23933 | 12844 ft | 352 kts | 323° |
| 2026-05-07 18:57 | 51.16467 | 0.21729 | 12219 ft | 348 kts | 324° |
| 2026-05-07 18:57 | 51.18431 | 0.19589 | 11905 ft | 332 kts | 324° |
| 2026-05-07 18:58 | 51.20288 | 0.17563 | 11727 ft | 313 kts | 323° |
| 2026-05-07 18:58 | 51.22047 | 0.15639 | 11623 ft | 300 kts | 323° |
| 2026-05-07 18:58 | 51.23756 | 0.13763 | 11101 ft | 297 kts | 323° |
| 2026-05-07 18:58 | 51.25433 | 0.11919 | 10563 ft | 294 kts | 323° |
| 2026-05-07 18:59 | 51.27115 | 0.10067 | 10036 ft | 291 kts | 323° |
| 2026-05-07 18:59 | 51.28772 | 0.08245 | 9472 ft | 287 kts | 323° |
| 2026-05-07 18:59 | 51.30413 | 0.06438 | 8885 ft | 285 kts | 324° |
| 2026-05-07 18:59 | 51.31926 | 0.04439 | 8341 ft | 280 kts | 306° |
| 2026-05-07 19:00 | 51.32750 | 0.01691 | 8133 ft | 277 kts | 280° |
| 2026-05-07 19:00 | 51.32887 | -0.01350 | 8073 ft | 270 kts | 271° |
| 2026-05-07 19:00 | 51.32956 | -0.04357 | 8070 ft | 272 kts | 271° |
| 2026-05-07 19:00 | 51.33023 | -0.07377 | 8075 ft | 276 kts | 271° |
| 2026-05-07 19:01 | 51.33089 | -0.10447 | 8061 ft | 275 kts | 271° |
| 2026-05-07 19:01 | 51.33154 | -0.13498 | 7888 ft | 274 kts | 271° |
| 2026-05-07 19:01 | 51.33216 | -0.16529 | 7565 ft | 272 kts | 271° |
| 2026-05-07 19:01 | 51.33252 | -0.18550 | 7291 ft | 272 kts | 271° |
| 2026-05-07 19:02 | 51.33301 | -0.21572 | 7105 ft | 271 kts | 271° |
| 2026-05-07 19:02 | 51.33359 | -0.25577 | 7075 ft | 272 kts | 271° |
| 2026-05-07 19:02 | 51.33387 | -0.27624 | 7045 ft | 273 kts | 271° |
| 2026-05-07 19:02 | 51.33424 | -0.30380 | 7046 ft | 273 kts | 271° |
| 2026-05-07 19:03 | 51.33465 | -0.33430 | 7056 ft | 273 kts | 271° |
| 2026-05-07 19:03 | 51.33505 | -0.36468 | 7050 ft | 273 kts | 271° |
| 2026-05-07 19:03 | 51.33545 | -0.39506 | 7053 ft | 273 kts | 271° |
| 2026-05-07 19:03 | 51.33583 | -0.42536 | 7051 ft | 272 kts | 271° |
| 2026-05-07 19:04 | 51.33622 | -0.45570 | 7052 ft | 272 kts | 271° |
| 2026-05-07 19:04 | 51.33672 | -0.48566 | 7057 ft | 271 kts | 274° |
| 2026-05-07 19:04 | 51.33938 | -0.51495 | 7025 ft | 256 kts | 281° |
| 2026-05-07 19:04 | 51.34275 | -0.54194 | 7071 ft | 241 kts | 281° |
| 2026-05-07 19:05 | 51.34600 | -0.56814 | 7021 ft | 239 kts | 281° |
| 2026-05-07 19:05 | 51.34922 | -0.59414 | 6861 ft | 240 kts | 281° |
| 2026-05-07 19:05 | 51.35242 | -0.62035 | 6638 ft | 237 kts | 281° |
| 2026-05-07 19:05 | 51.35551 | -0.64601 | 6269 ft | 239 kts | 281° |
| 2026-05-07 19:06 | 51.35862 | -0.67215 | 5907 ft | 239 kts | 281° |
| 2026-05-07 19:06 | 51.36482 | -0.72453 | 5239 ft | 238 kts | 281° |
| 2026-05-07 19:06 | 51.36791 | -0.75066 | 4905 ft | 238 kts | 281° |
| 2026-05-07 19:07 | 51.37285 | -0.77574 | 4529 ft | 237 kts | 302° |
| 2026-05-07 19:07 | 51.38445 | -0.79358 | 4202 ft | 235 kts | 333° |
| 2026-05-07 19:07 | 51.39995 | -0.79927 | 4020 ft | 224 kts | 0° |
| 2026-05-07 19:07 | 51.41493 | -0.79924 | 4004 ft | 201 kts | 1° |
| 2026-05-07 19:08 | 51.42838 | -0.79941 | 4000 ft | 191 kts | 0° |
| 2026-05-07 19:08 | 51.44164 | -0.79955 | 3998 ft | 191 kts | 1° |
| 2026-05-07 19:08 | 51.45454 | -0.79628 | 3935 ft | 187 kts | 27° |
| 2026-05-07 19:08 | 51.46339 | -0.78257 | 3790 ft | 172 kts | 59° |
| 2026-05-07 19:09 | 51.46909 | -0.76642 | 3512 ft | 164 kts | 61° |
| 2026-05-07 19:09 | 51.47398 | -0.75025 | 3119 ft | 160 kts | 73° |
| 2026-05-07 19:09 | 51.47599 | -0.73250 | 3000 ft | 162 kts | 85° |
| 2026-05-07 19:09 | 51.47658 | -0.71457 | 2944 ft | 164 kts | 89° |
| 2026-05-07 19:10 | 51.47669 | -0.69620 | 2747 ft | 164 kts | 90° |
| 2026-05-07 19:10 | 51.47679 | -0.67787 | 2508 ft | 164 kts | 91° |
| 2026-05-07 19:10 | 51.47685 | -0.65966 | 2283 ft | 164 kts | 91° |
| 2026-05-07 19:10 | 51.47692 | -0.64134 | 2062 ft | 164 kts | 91° |
| 2026-05-07 19:11 | 51.47699 | -0.62301 | 1840 ft | 164 kts | 91° |
| 2026-05-07 19:11 | 51.47706 | -0.60520 | 1610 ft | 155 kts | 92° |
| 2026-05-07 19:11 | 51.47712 | -0.58854 | 1399 ft | 144 kts | 92° |
| 2026-05-07 19:11 | 51.47717 | -0.57263 | 1207 ft | 142 kts | 92° |
| 2026-05-07 19:12 | 51.47723 | -0.55702 | 1016 ft | 140 kts | 92° |
| 2026-05-07 19:12 | 51.47728 | -0.54139 | 818 ft | 138 kts | 92° |
| 2026-05-07 19:12 | 51.47734 | -0.52606 | 633 ft | 136 kts | 91° |
| 2026-05-07 19:12 | 51.47744 | -0.51092 | 435 ft | 136 kts | 92° |
| 2026-05-07 19:13 | 51.47749 | -0.49566 | 254 ft | 134 kts | 92° |
| 2026-05-07 19:13 | 51.47757 | -0.48119 | 107 ft | 124 kts | 92° |
| 2026-05-07 19:13 | 51.47756 | -0.46917 | 97 ft | 88 kts | 91° |
| 2026-05-07 19:13 | 51.47757 | -0.46106 | 95 ft | 61 kts | 89° |
| 2026-05-07 19:14 | 51.47759 | -0.45515 | 93 ft | 44 kts | 90° |
| 2026-05-07 19:14 | 51.47760 | -0.45072 | 97 ft | 38 kts | 90° |
| 2026-05-07 19:14 | 51.47714 | -0.44866 | 98 ft | 18 kts | 138° |
| 2026-05-07 19:14 | 51.47652 | -0.44797 | 96 ft | 0 kts | 157° |
| 2026-05-07 19:15 | 51.47640 | -0.44789 | 96 ft | 8 kts | 152° |
| 2026-05-07 19:15 | 51.47602 | -0.44709 | 95 ft | 9 kts | 123° |
| 2026-05-07 19:15 | 51.47551 | -0.44674 | 94 ft | 8 kts | 194° |
| 2026-05-07 19:15 | 51.47517 | -0.44731 | 97 ft | 8 kts | 254° |
| 2026-05-07 19:16 | 51.47509 | -0.44854 | 96 ft | 14 kts | 266° |
| 2026-05-07 19:16 | 51.47507 | -0.45031 | 95 ft | 18 kts | 270° |
| 2026-05-07 19:16 | 51.47506 | -0.45254 | 95 ft | 22 kts | 270° |
| 2026-05-07 19:16 | 51.47506 | -0.45510 | 95 ft | 24 kts | 270° |
| 2026-05-07 19:17 | 51.47514 | -0.45790 | 95 ft | 26 kts | 275° |
| 2026-05-07 19:17 | 51.47516 | -0.46083 | 92 ft | 24 kts | 269° |
| 2026-05-07 19:17 | 51.47515 | -0.46367 | 92 ft | 26 kts | 270° |
| 2026-05-07 19:17 | 51.47511 | -0.46667 | 95 ft | 28 kts | 260° |
| 2026-05-07 19:18 | 51.47493 | -0.46977 | 93 ft | 28 kts | 271° |
| 2026-05-07 19:18 | 51.47491 | -0.47299 | 92 ft | 29 kts | 269° |
| 2026-05-07 19:18 | 51.47489 | -0.47609 | 94 ft | 22 kts | 269° |
| 2026-05-07 19:18 | 51.47489 | -0.47697 | 94 ft | 0 kts | 270° |
| 2026-05-07 19:19 | 51.47489 | -0.47714 | 94 ft | 5 kts | 271° |
| 2026-05-07 19:19 | 51.47489 | -0.47735 | 94 ft | 0 kts | 271° |
| 2026-05-07 19:20 | 51.47489 | -0.47739 | 94 ft | 2 kts | 271° |
| 2026-05-07 19:20 | 51.47489 | -0.47754 | 94 ft | 0 kts | 270° |
| 2026-05-07 19:20 | 51.47490 | -0.47772 | 93 ft | 5 kts | 271° |
| 2026-05-07 19:21 | 51.47480 | -0.47842 | 96 ft | 8 kts | 229° |
| 2026-05-07 19:21 | 51.47429 | -0.47874 | 95 ft | 9 kts | 182° |
| 2026-05-07 19:21 | 51.47352 | -0.47875 | 92 ft | 12 kts | 180° |
| 2026-05-07 19:21 | 51.47270 | -0.47873 | 95 ft | 9 kts | 179° |
| 2026-05-07 19:22 | 51.47229 | -0.47874 | 95 ft | 1 kts | 174° |
| 2026-05-07 19:22 | 51.47218 | -0.47864 | 94 ft | 1 kts | 118° |
| 2026-05-07 19:22 | 51.47217 | -0.47844 | 96 ft | 5 kts | 74° |
| 2026-05-07 19:22 | 51.47221 | -0.47783 | 95 ft | 6 kts | 90° |
| 2026-05-07 19:23 | 51.47220 | -0.47743 | 95 ft | 3 kts | 90° |
| 2026-05-07 19:23 | 51.47220 | -0.47740 | 95 ft | 0 kts | 90° |